<?xml version="1.0" encoding="UTF-8" standalone="no" ?>
<gpx xmlns="http://www.topografix.com/GPX/1/1" xmlns:xsi="http://www.w3.org/2001/XMLSchema-instance" xsi:schemaLocation="http://www.topografix.com/GPX/1/1 http://www.topografix.com/GPX/1/1/gpx.xsd" version="1.1" creator="VisuGPX - https://www.visugpx.com">
  <metadata>
    <name>Blanzat - Malauzat</name>
    <desc><![CDATA[Circuit VTT facile et roulant]]></desc>
  </metadata>
  <trk>
    <name><![CDATA[28-JUIN-15 11:27:41]]></name>
    <trkseg>
      <trkpt lat="45.77898" lon="3.07415">
        <ele>406.77</ele>
        <time>2015-06-27T13:52:14Z</time>
      </trkpt>
      <trkpt lat="45.77897" lon="3.07414">
        <ele>406.29</ele>
        <time>2015-06-27T13:52:44Z</time>
      </trkpt>
      <trkpt lat="45.77897" lon="3.07413">
        <ele>404.37</ele>
        <time>2015-06-27T13:52:48Z</time>
      </trkpt>
      <trkpt lat="45.77897" lon="3.07416">
        <ele>374.57</ele>
        <time>2015-06-28T05:23:04Z</time>
      </trkpt>
      <trkpt lat="45.77903" lon="3.07411">
        <ele>374.57</ele>
        <time>2015-06-28T05:23:38Z</time>
      </trkpt>
      <trkpt lat="45.77898" lon="3.07411">
        <ele>374.09</ele>
        <time>2015-06-28T05:24:17Z</time>
      </trkpt>
      <trkpt lat="45.77896" lon="3.07412">
        <ele>375.53</ele>
        <time>2015-06-28T05:24:52Z</time>
      </trkpt>
      <trkpt lat="45.77897" lon="3.07412">
        <ele>375.53</ele>
        <time>2015-06-28T05:25:30Z</time>
      </trkpt>
      <trkpt lat="45.77898" lon="3.07403">
        <ele>374.57</ele>
        <time>2015-06-28T05:26:09Z</time>
      </trkpt>
      <trkpt lat="45.77895" lon="3.074">
        <ele>374.09</ele>
        <time>2015-06-28T05:26:27Z</time>
      </trkpt>
      <trkpt lat="45.77888" lon="3.07393">
        <ele>374.09</ele>
        <time>2015-06-28T05:26:47Z</time>
      </trkpt>
      <trkpt lat="45.77895" lon="3.07391">
        <ele>374.09</ele>
        <time>2015-06-28T05:27:02Z</time>
      </trkpt>
      <trkpt lat="45.7789" lon="3.07397">
        <ele>374.57</ele>
        <time>2015-06-28T05:27:26Z</time>
      </trkpt>
      <trkpt lat="45.77866" lon="3.07401">
        <ele>374.57</ele>
        <time>2015-06-28T05:27:52Z</time>
      </trkpt>
      <trkpt lat="45.7787" lon="3.07405">
        <ele>375.53</ele>
        <time>2015-06-28T05:28:26Z</time>
      </trkpt>
      <trkpt lat="45.77872" lon="3.07401">
        <ele>375.53</ele>
        <time>2015-06-28T05:28:32Z</time>
      </trkpt>
      <trkpt lat="45.77874" lon="3.074">
        <ele>374.09</ele>
        <time>2015-06-28T05:28:35Z</time>
      </trkpt>
      <trkpt lat="45.77877" lon="3.07398">
        <ele>374.09</ele>
        <time>2015-06-28T05:28:44Z</time>
      </trkpt>
      <trkpt lat="45.77877" lon="3.07398">
        <ele>375.53</ele>
        <time>2015-06-28T05:28:45Z</time>
      </trkpt>
      <trkpt lat="45.77877" lon="3.07401">
        <ele>374.57</ele>
        <time>2015-06-28T05:28:52Z</time>
      </trkpt>
      <trkpt lat="45.77874" lon="3.07403">
        <ele>376.01</ele>
        <time>2015-06-28T05:29:01Z</time>
      </trkpt>
      <trkpt lat="45.77872" lon="3.07402">
        <ele>375.53</ele>
        <time>2015-06-28T05:29:09Z</time>
      </trkpt>
      <trkpt lat="45.77871" lon="3.07401">
        <ele>373.61</ele>
        <time>2015-06-28T05:29:19Z</time>
      </trkpt>
      <trkpt lat="45.77871" lon="3.07401">
        <ele>375.05</ele>
        <time>2015-06-28T05:29:20Z</time>
      </trkpt>
      <trkpt lat="45.77871" lon="3.07401">
        <ele>375.05</ele>
        <time>2015-06-28T05:29:22Z</time>
      </trkpt>
      <trkpt lat="45.77869" lon="3.07402">
        <ele>372.65</ele>
        <time>2015-06-28T05:29:38Z</time>
      </trkpt>
      <trkpt lat="45.77877" lon="3.07398">
        <ele>422.64</ele>
        <time>2015-06-28T06:59:06Z</time>
      </trkpt>
      <trkpt lat="45.77263" lon="3.05579">
        <ele>425.52</ele>
        <time>2015-06-28T06:59:32Z</time>
      </trkpt>
      <trkpt lat="45.77255" lon="3.05594">
        <ele>429.85</ele>
        <time>2015-06-28T06:59:35Z</time>
      </trkpt>
      <trkpt lat="45.77252" lon="3.05599">
        <ele>434.17</ele>
        <time>2015-06-28T06:59:39Z</time>
      </trkpt>
      <trkpt lat="45.77251" lon="3.05601">
        <ele>437.54</ele>
        <time>2015-06-28T06:59:42Z</time>
      </trkpt>
      <trkpt lat="45.77251" lon="3.05602">
        <ele>440.42</ele>
        <time>2015-06-28T06:59:45Z</time>
      </trkpt>
      <trkpt lat="45.7725" lon="3.05603">
        <ele>442.34</ele>
        <time>2015-06-28T06:59:48Z</time>
      </trkpt>
      <trkpt lat="45.7725" lon="3.05603">
        <ele>445.71</ele>
        <time>2015-06-28T06:59:51Z</time>
      </trkpt>
      <trkpt lat="45.7725" lon="3.05604">
        <ele>449.07</ele>
        <time>2015-06-28T06:59:55Z</time>
      </trkpt>
      <trkpt lat="45.7725" lon="3.05605">
        <ele>451</ele>
        <time>2015-06-28T06:59:58Z</time>
      </trkpt>
      <trkpt lat="45.7725" lon="3.05606">
        <ele>454.36</ele>
        <time>2015-06-28T07:00:04Z</time>
      </trkpt>
      <trkpt lat="45.77248" lon="3.05606">
        <ele>456.28</ele>
        <time>2015-06-28T07:00:09Z</time>
      </trkpt>
      <trkpt lat="45.77247" lon="3.05607">
        <ele>459.65</ele>
        <time>2015-06-28T07:00:19Z</time>
      </trkpt>
      <trkpt lat="45.77248" lon="3.05607">
        <ele>462.53</ele>
        <time>2015-06-28T07:00:29Z</time>
      </trkpt>
      <trkpt lat="45.77248" lon="3.05606">
        <ele>465.9</ele>
        <time>2015-06-28T07:00:44Z</time>
      </trkpt>
      <trkpt lat="45.77253" lon="3.05601">
        <ele>469.26</ele>
        <time>2015-06-28T07:01:00Z</time>
      </trkpt>
      <trkpt lat="45.77253" lon="3.05601">
        <ele>469.74</ele>
        <time>2015-06-28T07:01:02Z</time>
      </trkpt>
      <trkpt lat="45.77254" lon="3.05601">
        <ele>473.11</ele>
        <time>2015-06-28T07:01:13Z</time>
      </trkpt>
      <trkpt lat="45.77255" lon="3.056">
        <ele>475.51</ele>
        <time>2015-06-28T07:01:22Z</time>
      </trkpt>
      <trkpt lat="45.77254" lon="3.05599">
        <ele>477.91</ele>
        <time>2015-06-28T07:01:54Z</time>
      </trkpt>
      <trkpt lat="45.77245" lon="3.056">
        <ele>478.39</ele>
        <time>2015-06-28T07:02:12Z</time>
      </trkpt>
      <trkpt lat="45.77246" lon="3.056">
        <ele>477.91</ele>
        <time>2015-06-28T07:02:25Z</time>
      </trkpt>
      <trkpt lat="45.77247" lon="3.056">
        <ele>478.87</ele>
        <time>2015-06-28T07:02:27Z</time>
      </trkpt>
      <trkpt lat="45.77248" lon="3.05602">
        <ele>478.87</ele>
        <time>2015-06-28T07:02:44Z</time>
      </trkpt>
      <trkpt lat="45.77252" lon="3.05602">
        <ele>478.87</ele>
        <time>2015-06-28T07:03:00Z</time>
      </trkpt>
      <trkpt lat="45.77255" lon="3.05601">
        <ele>478.87</ele>
        <time>2015-06-28T07:03:12Z</time>
      </trkpt>
      <trkpt lat="45.77254" lon="3.056">
        <ele>478.87</ele>
        <time>2015-06-28T07:03:19Z</time>
      </trkpt>
      <trkpt lat="45.7727" lon="3.05595">
        <ele>480.8</ele>
        <time>2015-06-28T07:03:28Z</time>
      </trkpt>
      <trkpt lat="45.77277" lon="3.05593">
        <ele>481.28</ele>
        <time>2015-06-28T07:03:40Z</time>
      </trkpt>
      <trkpt lat="45.77276" lon="3.05593">
        <ele>481.28</ele>
        <time>2015-06-28T07:03:58Z</time>
      </trkpt>
      <trkpt lat="45.77275" lon="3.05594">
        <ele>481.28</ele>
        <time>2015-06-28T07:04:05Z</time>
      </trkpt>
      <trkpt lat="45.77272" lon="3.05588">
        <ele>481.28</ele>
        <time>2015-06-28T07:04:09Z</time>
      </trkpt>
      <trkpt lat="45.7727" lon="3.05561">
        <ele>480.8</ele>
        <time>2015-06-28T07:04:19Z</time>
      </trkpt>
      <trkpt lat="45.77272" lon="3.05559">
        <ele>480.8</ele>
        <time>2015-06-28T07:04:20Z</time>
      </trkpt>
      <trkpt lat="45.77273" lon="3.05557">
        <ele>480.8</ele>
        <time>2015-06-28T07:04:21Z</time>
      </trkpt>
      <trkpt lat="45.773" lon="3.05512">
        <ele>480.8</ele>
        <time>2015-06-28T07:04:34Z</time>
      </trkpt>
      <trkpt lat="45.77327" lon="3.05439">
        <ele>479.35</ele>
        <time>2015-06-28T07:04:50Z</time>
      </trkpt>
      <trkpt lat="45.77364" lon="3.05388">
        <ele>478.39</ele>
        <time>2015-06-28T07:05:02Z</time>
      </trkpt>
      <trkpt lat="45.77378" lon="3.05379">
        <ele>478.39</ele>
        <time>2015-06-28T07:05:05Z</time>
      </trkpt>
      <trkpt lat="45.77382" lon="3.05377">
        <ele>478.39</ele>
        <time>2015-06-28T07:05:06Z</time>
      </trkpt>
      <trkpt lat="45.77387" lon="3.05375">
        <ele>477.91</ele>
        <time>2015-06-28T07:05:07Z</time>
      </trkpt>
      <trkpt lat="45.77391" lon="3.05374">
        <ele>477.91</ele>
        <time>2015-06-28T07:05:08Z</time>
      </trkpt>
      <trkpt lat="45.77396" lon="3.05374">
        <ele>477.91</ele>
        <time>2015-06-28T07:05:09Z</time>
      </trkpt>
      <trkpt lat="45.77401" lon="3.05375">
        <ele>477.91</ele>
        <time>2015-06-28T07:05:10Z</time>
      </trkpt>
      <trkpt lat="45.77443" lon="3.05373">
        <ele>476.95</ele>
        <time>2015-06-28T07:05:19Z</time>
      </trkpt>
      <trkpt lat="45.7747" lon="3.05361">
        <ele>476.47</ele>
        <time>2015-06-28T07:05:25Z</time>
      </trkpt>
      <trkpt lat="45.7748" lon="3.05359">
        <ele>476.47</ele>
        <time>2015-06-28T07:05:27Z</time>
      </trkpt>
      <trkpt lat="45.77485" lon="3.05359">
        <ele>476.47</ele>
        <time>2015-06-28T07:05:28Z</time>
      </trkpt>
      <trkpt lat="45.77494" lon="3.0536">
        <ele>475.99</ele>
        <time>2015-06-28T07:05:30Z</time>
      </trkpt>
      <trkpt lat="45.77499" lon="3.05361">
        <ele>475.99</ele>
        <time>2015-06-28T07:05:31Z</time>
      </trkpt>
      <trkpt lat="45.77504" lon="3.05362">
        <ele>475.99</ele>
        <time>2015-06-28T07:05:32Z</time>
      </trkpt>
      <trkpt lat="45.77509" lon="3.05365">
        <ele>475.99</ele>
        <time>2015-06-28T07:05:33Z</time>
      </trkpt>
      <trkpt lat="45.77513" lon="3.05367">
        <ele>475.99</ele>
        <time>2015-06-28T07:05:34Z</time>
      </trkpt>
      <trkpt lat="45.77518" lon="3.0537">
        <ele>476.47</ele>
        <time>2015-06-28T07:05:35Z</time>
      </trkpt>
      <trkpt lat="45.7756" lon="3.054">
        <ele>477.91</ele>
        <time>2015-06-28T07:05:48Z</time>
      </trkpt>
      <trkpt lat="45.77604" lon="3.05408">
        <ele>480.8</ele>
        <time>2015-06-28T07:06:04Z</time>
      </trkpt>
      <trkpt lat="45.77656" lon="3.05402">
        <ele>482.24</ele>
        <time>2015-06-28T07:06:22Z</time>
      </trkpt>
      <trkpt lat="45.77717" lon="3.05439">
        <ele>484.64</ele>
        <time>2015-06-28T07:06:43Z</time>
      </trkpt>
      <trkpt lat="45.77757" lon="3.05507">
        <ele>487.53</ele>
        <time>2015-06-28T07:07:03Z</time>
      </trkpt>
      <trkpt lat="45.77791" lon="3.05542">
        <ele>489.45</ele>
        <time>2015-06-28T07:07:18Z</time>
      </trkpt>
      <trkpt lat="45.77829" lon="3.05519">
        <ele>490.89</ele>
        <time>2015-06-28T07:07:32Z</time>
      </trkpt>
      <trkpt lat="45.77879" lon="3.05485">
        <ele>492.81</ele>
        <time>2015-06-28T07:07:51Z</time>
      </trkpt>
      <trkpt lat="45.77919" lon="3.05481">
        <ele>493.77</ele>
        <time>2015-06-28T07:08:07Z</time>
      </trkpt>
      <trkpt lat="45.77956" lon="3.05533">
        <ele>494.26</ele>
        <time>2015-06-28T07:08:22Z</time>
      </trkpt>
      <trkpt lat="45.7797" lon="3.0561">
        <ele>495.7</ele>
        <time>2015-06-28T07:08:38Z</time>
      </trkpt>
      <trkpt lat="45.77992" lon="3.05678">
        <ele>496.66</ele>
        <time>2015-06-28T07:08:54Z</time>
      </trkpt>
      <trkpt lat="45.78029" lon="3.05755">
        <ele>497.62</ele>
        <time>2015-06-28T07:09:14Z</time>
      </trkpt>
      <trkpt lat="45.78071" lon="3.05827">
        <ele>498.58</ele>
        <time>2015-06-28T07:09:33Z</time>
      </trkpt>
      <trkpt lat="45.78115" lon="3.05866">
        <ele>498.58</ele>
        <time>2015-06-28T07:09:49Z</time>
      </trkpt>
      <trkpt lat="45.78166" lon="3.05852">
        <ele>500.02</ele>
        <time>2015-06-28T07:10:05Z</time>
      </trkpt>
      <trkpt lat="45.78226" lon="3.05832">
        <ele>500.5</ele>
        <time>2015-06-28T07:10:24Z</time>
      </trkpt>
      <trkpt lat="45.78278" lon="3.05844">
        <ele>501.95</ele>
        <time>2015-06-28T07:10:41Z</time>
      </trkpt>
      <trkpt lat="45.78325" lon="3.05826">
        <ele>502.91</ele>
        <time>2015-06-28T07:10:56Z</time>
      </trkpt>
      <trkpt lat="45.78374" lon="3.05771">
        <ele>503.87</ele>
        <time>2015-06-28T07:11:15Z</time>
      </trkpt>
      <trkpt lat="45.78413" lon="3.05716">
        <ele>505.79</ele>
        <time>2015-06-28T07:11:32Z</time>
      </trkpt>
      <trkpt lat="45.78471" lon="3.05707">
        <ele>506.27</ele>
        <time>2015-06-28T07:11:49Z</time>
      </trkpt>
      <trkpt lat="45.78527" lon="3.05701">
        <ele>507.23</ele>
        <time>2015-06-28T07:12:05Z</time>
      </trkpt>
      <trkpt lat="45.78583" lon="3.05669">
        <ele>508.19</ele>
        <time>2015-06-28T07:12:23Z</time>
      </trkpt>
      <trkpt lat="45.78633" lon="3.05631">
        <ele>510.12</ele>
        <time>2015-06-28T07:12:39Z</time>
      </trkpt>
      <trkpt lat="45.78673" lon="3.05663">
        <ele>510.6</ele>
        <time>2015-06-28T07:12:52Z</time>
      </trkpt>
      <trkpt lat="45.78701" lon="3.05738">
        <ele>509.64</ele>
        <time>2015-06-28T07:13:09Z</time>
      </trkpt>
      <trkpt lat="45.78713" lon="3.0576">
        <ele>508.19</ele>
        <time>2015-06-28T07:13:14Z</time>
      </trkpt>
      <trkpt lat="45.78716" lon="3.05764">
        <ele>508.19</ele>
        <time>2015-06-28T07:13:15Z</time>
      </trkpt>
      <trkpt lat="45.7872" lon="3.05766">
        <ele>508.19</ele>
        <time>2015-06-28T07:13:16Z</time>
      </trkpt>
      <trkpt lat="45.78725" lon="3.05767">
        <ele>507.71</ele>
        <time>2015-06-28T07:13:17Z</time>
      </trkpt>
      <trkpt lat="45.7873" lon="3.05768">
        <ele>507.71</ele>
        <time>2015-06-28T07:13:18Z</time>
      </trkpt>
      <trkpt lat="45.78736" lon="3.05768">
        <ele>507.71</ele>
        <time>2015-06-28T07:13:19Z</time>
      </trkpt>
      <trkpt lat="45.78742" lon="3.05767">
        <ele>507.71</ele>
        <time>2015-06-28T07:13:20Z</time>
      </trkpt>
      <trkpt lat="45.78749" lon="3.05765">
        <ele>506.75</ele>
        <time>2015-06-28T07:13:21Z</time>
      </trkpt>
      <trkpt lat="45.78755" lon="3.05763">
        <ele>506.27</ele>
        <time>2015-06-28T07:13:22Z</time>
      </trkpt>
      <trkpt lat="45.78794" lon="3.05757">
        <ele>503.39</ele>
        <time>2015-06-28T07:13:27Z</time>
      </trkpt>
      <trkpt lat="45.78801" lon="3.05753">
        <ele>503.39</ele>
        <time>2015-06-28T07:13:28Z</time>
      </trkpt>
      <trkpt lat="45.78807" lon="3.05748">
        <ele>502.91</ele>
        <time>2015-06-28T07:13:29Z</time>
      </trkpt>
      <trkpt lat="45.78813" lon="3.0574">
        <ele>502.91</ele>
        <time>2015-06-28T07:13:30Z</time>
      </trkpt>
      <trkpt lat="45.78818" lon="3.05732">
        <ele>502.91</ele>
        <time>2015-06-28T07:13:31Z</time>
      </trkpt>
      <trkpt lat="45.78887" lon="3.05602">
        <ele>504.35</ele>
        <time>2015-06-28T07:13:49Z</time>
      </trkpt>
      <trkpt lat="45.78928" lon="3.05528">
        <ele>505.79</ele>
        <time>2015-06-28T07:14:02Z</time>
      </trkpt>
      <trkpt lat="45.78945" lon="3.05452">
        <ele>507.71</ele>
        <time>2015-06-28T07:14:16Z</time>
      </trkpt>
      <trkpt lat="45.78979" lon="3.05409">
        <ele>510.6</ele>
        <time>2015-06-28T07:14:30Z</time>
      </trkpt>
      <trkpt lat="45.79015" lon="3.05379">
        <ele>513.96</ele>
        <time>2015-06-28T07:14:45Z</time>
      </trkpt>
      <trkpt lat="45.79073" lon="3.05361">
        <ele>516.37</ele>
        <time>2015-06-28T07:15:04Z</time>
      </trkpt>
      <trkpt lat="45.79138" lon="3.05352">
        <ele>517.81</ele>
        <time>2015-06-28T07:15:24Z</time>
      </trkpt>
      <trkpt lat="45.79193" lon="3.0535">
        <ele>519.25</ele>
        <time>2015-06-28T07:15:41Z</time>
      </trkpt>
      <trkpt lat="45.79243" lon="3.05341">
        <ele>522.61</ele>
        <time>2015-06-28T07:15:58Z</time>
      </trkpt>
      <trkpt lat="45.79276" lon="3.05323">
        <ele>525.98</ele>
        <time>2015-06-28T07:16:12Z</time>
      </trkpt>
      <trkpt lat="45.79313" lon="3.05305">
        <ele>529.34</ele>
        <time>2015-06-28T07:16:27Z</time>
      </trkpt>
      <trkpt lat="45.79349" lon="3.05295">
        <ele>532.71</ele>
        <time>2015-06-28T07:16:41Z</time>
      </trkpt>
      <trkpt lat="45.79388" lon="3.05291">
        <ele>535.59</ele>
        <time>2015-06-28T07:16:54Z</time>
      </trkpt>
      <trkpt lat="45.79427" lon="3.05279">
        <ele>539.44</ele>
        <time>2015-06-28T07:17:10Z</time>
      </trkpt>
      <trkpt lat="45.79465" lon="3.0527">
        <ele>538.96</ele>
        <time>2015-06-28T07:17:26Z</time>
      </trkpt>
      <trkpt lat="45.79492" lon="3.05257">
        <ele>537.99</ele>
        <time>2015-06-28T07:17:33Z</time>
      </trkpt>
      <trkpt lat="45.79497" lon="3.05255">
        <ele>537.51</ele>
        <time>2015-06-28T07:17:34Z</time>
      </trkpt>
      <trkpt lat="45.79501" lon="3.05253">
        <ele>537.03</ele>
        <time>2015-06-28T07:17:35Z</time>
      </trkpt>
      <trkpt lat="45.79517" lon="3.05247">
        <ele>536.07</ele>
        <time>2015-06-28T07:17:38Z</time>
      </trkpt>
      <trkpt lat="45.79522" lon="3.05245">
        <ele>535.59</ele>
        <time>2015-06-28T07:17:39Z</time>
      </trkpt>
      <trkpt lat="45.79574" lon="3.05239">
        <ele>533.19</ele>
        <time>2015-06-28T07:17:46Z</time>
      </trkpt>
      <trkpt lat="45.79582" lon="3.05239">
        <ele>532.23</ele>
        <time>2015-06-28T07:17:47Z</time>
      </trkpt>
      <trkpt lat="45.7959" lon="3.05237">
        <ele>532.23</ele>
        <time>2015-06-28T07:17:48Z</time>
      </trkpt>
      <trkpt lat="45.79606" lon="3.05235">
        <ele>530.79</ele>
        <time>2015-06-28T07:17:50Z</time>
      </trkpt>
      <trkpt lat="45.79613" lon="3.05236">
        <ele>530.3</ele>
        <time>2015-06-28T07:17:51Z</time>
      </trkpt>
      <trkpt lat="45.79683" lon="3.05248">
        <ele>528.38</ele>
        <time>2015-06-28T07:18:01Z</time>
      </trkpt>
      <trkpt lat="45.79719" lon="3.05236">
        <ele>527.42</ele>
        <time>2015-06-28T07:18:06Z</time>
      </trkpt>
      <trkpt lat="45.79733" lon="3.05236">
        <ele>527.9</ele>
        <time>2015-06-28T07:18:08Z</time>
      </trkpt>
      <trkpt lat="45.7974" lon="3.05238">
        <ele>527.42</ele>
        <time>2015-06-28T07:18:09Z</time>
      </trkpt>
      <trkpt lat="45.79754" lon="3.05245">
        <ele>526.94</ele>
        <time>2015-06-28T07:18:11Z</time>
      </trkpt>
      <trkpt lat="45.79767" lon="3.05252">
        <ele>527.42</ele>
        <time>2015-06-28T07:18:13Z</time>
      </trkpt>
      <trkpt lat="45.79773" lon="3.05251">
        <ele>526.46</ele>
        <time>2015-06-28T07:18:14Z</time>
      </trkpt>
      <trkpt lat="45.79779" lon="3.05248">
        <ele>526.46</ele>
        <time>2015-06-28T07:18:15Z</time>
      </trkpt>
      <trkpt lat="45.79785" lon="3.05244">
        <ele>526.46</ele>
        <time>2015-06-28T07:18:16Z</time>
      </trkpt>
      <trkpt lat="45.79791" lon="3.0524">
        <ele>525.98</ele>
        <time>2015-06-28T07:18:17Z</time>
      </trkpt>
      <trkpt lat="45.79796" lon="3.05235">
        <ele>525.98</ele>
        <time>2015-06-28T07:18:18Z</time>
      </trkpt>
      <trkpt lat="45.79813" lon="3.05222">
        <ele>525.98</ele>
        <time>2015-06-28T07:18:21Z</time>
      </trkpt>
      <trkpt lat="45.79819" lon="3.0522">
        <ele>525.5</ele>
        <time>2015-06-28T07:18:22Z</time>
      </trkpt>
      <trkpt lat="45.79826" lon="3.05219">
        <ele>525.5</ele>
        <time>2015-06-28T07:18:23Z</time>
      </trkpt>
      <trkpt lat="45.79859" lon="3.05217">
        <ele>524.06</ele>
        <time>2015-06-28T07:18:33Z</time>
      </trkpt>
      <trkpt lat="45.79895" lon="3.05213">
        <ele>523.09</ele>
        <time>2015-06-28T07:18:44Z</time>
      </trkpt>
      <trkpt lat="45.79905" lon="3.0522">
        <ele>522.61</ele>
        <time>2015-06-28T07:18:47Z</time>
      </trkpt>
      <trkpt lat="45.79909" lon="3.05222">
        <ele>522.61</ele>
        <time>2015-06-28T07:18:48Z</time>
      </trkpt>
      <trkpt lat="45.79912" lon="3.05223">
        <ele>522.13</ele>
        <time>2015-06-28T07:18:49Z</time>
      </trkpt>
      <trkpt lat="45.79915" lon="3.05223">
        <ele>522.13</ele>
        <time>2015-06-28T07:18:50Z</time>
      </trkpt>
      <trkpt lat="45.79918" lon="3.05223">
        <ele>522.13</ele>
        <time>2015-06-28T07:18:51Z</time>
      </trkpt>
      <trkpt lat="45.79957" lon="3.05222">
        <ele>521.17</ele>
        <time>2015-06-28T07:19:05Z</time>
      </trkpt>
      <trkpt lat="45.79996" lon="3.05217">
        <ele>520.69</ele>
        <time>2015-06-28T07:19:22Z</time>
      </trkpt>
      <trkpt lat="45.80012" lon="3.05222">
        <ele>519.73</ele>
        <time>2015-06-28T07:19:31Z</time>
      </trkpt>
      <trkpt lat="45.80012" lon="3.05225">
        <ele>520.21</ele>
        <time>2015-06-28T07:19:32Z</time>
      </trkpt>
      <trkpt lat="45.80012" lon="3.05276">
        <ele>521.17</ele>
        <time>2015-06-28T07:19:45Z</time>
      </trkpt>
      <trkpt lat="45.80014" lon="3.05338">
        <ele>519.73</ele>
        <time>2015-06-28T07:19:57Z</time>
      </trkpt>
      <trkpt lat="45.80014" lon="3.05345">
        <ele>519.73</ele>
        <time>2015-06-28T07:19:58Z</time>
      </trkpt>
      <trkpt lat="45.80012" lon="3.05352">
        <ele>518.77</ele>
        <time>2015-06-28T07:19:59Z</time>
      </trkpt>
      <trkpt lat="45.80014" lon="3.05386">
        <ele>518.29</ele>
        <time>2015-06-28T07:20:09Z</time>
      </trkpt>
      <trkpt lat="45.80018" lon="3.05401">
        <ele>516.85</ele>
        <time>2015-06-28T07:20:13Z</time>
      </trkpt>
      <trkpt lat="45.80022" lon="3.0542">
        <ele>516.37</ele>
        <time>2015-06-28T07:20:16Z</time>
      </trkpt>
      <trkpt lat="45.80022" lon="3.05426">
        <ele>516.37</ele>
        <time>2015-06-28T07:20:17Z</time>
      </trkpt>
      <trkpt lat="45.8002" lon="3.05443">
        <ele>516.85</ele>
        <time>2015-06-28T07:20:24Z</time>
      </trkpt>
      <trkpt lat="45.80021" lon="3.05445">
        <ele>516.37</ele>
        <time>2015-06-28T07:20:25Z</time>
      </trkpt>
      <trkpt lat="45.80022" lon="3.05452">
        <ele>515.88</ele>
        <time>2015-06-28T07:20:28Z</time>
      </trkpt>
      <trkpt lat="45.80022" lon="3.05454">
        <ele>516.85</ele>
        <time>2015-06-28T07:20:29Z</time>
      </trkpt>
      <trkpt lat="45.80021" lon="3.05456">
        <ele>516.37</ele>
        <time>2015-06-28T07:20:30Z</time>
      </trkpt>
      <trkpt lat="45.8002" lon="3.05458">
        <ele>516.85</ele>
        <time>2015-06-28T07:20:31Z</time>
      </trkpt>
      <trkpt lat="45.80019" lon="3.0546">
        <ele>516.85</ele>
        <time>2015-06-28T07:20:32Z</time>
      </trkpt>
      <trkpt lat="45.80019" lon="3.05462">
        <ele>516.85</ele>
        <time>2015-06-28T07:20:33Z</time>
      </trkpt>
      <trkpt lat="45.80019" lon="3.05465">
        <ele>516.85</ele>
        <time>2015-06-28T07:20:34Z</time>
      </trkpt>
      <trkpt lat="45.8002" lon="3.05466">
        <ele>517.33</ele>
        <time>2015-06-28T07:20:35Z</time>
      </trkpt>
      <trkpt lat="45.80021" lon="3.05468">
        <ele>517.33</ele>
        <time>2015-06-28T07:20:36Z</time>
      </trkpt>
      <trkpt lat="45.80023" lon="3.05468">
        <ele>517.33</ele>
        <time>2015-06-28T07:20:37Z</time>
      </trkpt>
      <trkpt lat="45.80025" lon="3.05469">
        <ele>517.33</ele>
        <time>2015-06-28T07:20:38Z</time>
      </trkpt>
      <trkpt lat="45.80044" lon="3.05505">
        <ele>517.33</ele>
        <time>2015-06-28T07:20:49Z</time>
      </trkpt>
      <trkpt lat="45.80061" lon="3.05562">
        <ele>516.85</ele>
        <time>2015-06-28T07:21:04Z</time>
      </trkpt>
      <trkpt lat="45.8006" lon="3.05599">
        <ele>515.4</ele>
        <time>2015-06-28T07:21:11Z</time>
      </trkpt>
      <trkpt lat="45.80063" lon="3.05604">
        <ele>515.88</ele>
        <time>2015-06-28T07:21:14Z</time>
      </trkpt>
      <trkpt lat="45.80065" lon="3.05604">
        <ele>515.88</ele>
        <time>2015-06-28T07:21:15Z</time>
      </trkpt>
      <trkpt lat="45.80067" lon="3.05604">
        <ele>515.4</ele>
        <time>2015-06-28T07:21:16Z</time>
      </trkpt>
      <trkpt lat="45.80095" lon="3.05609">
        <ele>514.92</ele>
        <time>2015-06-28T07:21:29Z</time>
      </trkpt>
      <trkpt lat="45.80114" lon="3.05618">
        <ele>514.44</ele>
        <time>2015-06-28T07:21:35Z</time>
      </trkpt>
      <trkpt lat="45.80116" lon="3.05622">
        <ele>513.96</ele>
        <time>2015-06-28T07:21:36Z</time>
      </trkpt>
      <trkpt lat="45.80116" lon="3.05627">
        <ele>514.44</ele>
        <time>2015-06-28T07:21:37Z</time>
      </trkpt>
      <trkpt lat="45.80115" lon="3.05632">
        <ele>514.44</ele>
        <time>2015-06-28T07:21:38Z</time>
      </trkpt>
      <trkpt lat="45.80115" lon="3.05637">
        <ele>514.44</ele>
        <time>2015-06-28T07:21:39Z</time>
      </trkpt>
      <trkpt lat="45.80116" lon="3.05641">
        <ele>514.44</ele>
        <time>2015-06-28T07:21:40Z</time>
      </trkpt>
      <trkpt lat="45.80117" lon="3.05646">
        <ele>514.92</ele>
        <time>2015-06-28T07:21:41Z</time>
      </trkpt>
      <trkpt lat="45.80118" lon="3.0565">
        <ele>514.92</ele>
        <time>2015-06-28T07:21:42Z</time>
      </trkpt>
      <trkpt lat="45.80144" lon="3.05672">
        <ele>513.96</ele>
        <time>2015-06-28T07:21:54Z</time>
      </trkpt>
      <trkpt lat="45.80203" lon="3.05682">
        <ele>512.04</ele>
        <time>2015-06-28T07:22:09Z</time>
      </trkpt>
      <trkpt lat="45.80248" lon="3.05701">
        <ele>512.52</ele>
        <time>2015-06-28T07:22:23Z</time>
      </trkpt>
      <trkpt lat="45.80281" lon="3.05728">
        <ele>511.08</ele>
        <time>2015-06-28T07:22:33Z</time>
      </trkpt>
      <trkpt lat="45.80285" lon="3.05732">
        <ele>510.6</ele>
        <time>2015-06-28T07:22:34Z</time>
      </trkpt>
      <trkpt lat="45.80303" lon="3.05747">
        <ele>509.64</ele>
        <time>2015-06-28T07:22:38Z</time>
      </trkpt>
      <trkpt lat="45.80307" lon="3.05749">
        <ele>509.16</ele>
        <time>2015-06-28T07:22:39Z</time>
      </trkpt>
      <trkpt lat="45.80312" lon="3.05751">
        <ele>508.67</ele>
        <time>2015-06-28T07:22:40Z</time>
      </trkpt>
      <trkpt lat="45.80316" lon="3.05752">
        <ele>508.19</ele>
        <time>2015-06-28T07:22:41Z</time>
      </trkpt>
      <trkpt lat="45.80321" lon="3.05753">
        <ele>507.71</ele>
        <time>2015-06-28T07:22:42Z</time>
      </trkpt>
      <trkpt lat="45.80326" lon="3.05754">
        <ele>507.23</ele>
        <time>2015-06-28T07:22:43Z</time>
      </trkpt>
      <trkpt lat="45.80334" lon="3.05753">
        <ele>505.79</ele>
        <time>2015-06-28T07:22:45Z</time>
      </trkpt>
      <trkpt lat="45.80339" lon="3.05752">
        <ele>505.79</ele>
        <time>2015-06-28T07:22:46Z</time>
      </trkpt>
      <trkpt lat="45.80343" lon="3.05751">
        <ele>505.31</ele>
        <time>2015-06-28T07:22:47Z</time>
      </trkpt>
      <trkpt lat="45.80346" lon="3.05749">
        <ele>504.83</ele>
        <time>2015-06-28T07:22:48Z</time>
      </trkpt>
      <trkpt lat="45.8035" lon="3.05748">
        <ele>504.35</ele>
        <time>2015-06-28T07:22:49Z</time>
      </trkpt>
      <trkpt lat="45.80353" lon="3.05746">
        <ele>503.87</ele>
        <time>2015-06-28T07:22:50Z</time>
      </trkpt>
      <trkpt lat="45.80357" lon="3.05745">
        <ele>502.91</ele>
        <time>2015-06-28T07:22:51Z</time>
      </trkpt>
      <trkpt lat="45.80362" lon="3.05745">
        <ele>502.43</ele>
        <time>2015-06-28T07:22:52Z</time>
      </trkpt>
      <trkpt lat="45.80384" lon="3.05743">
        <ele>498.58</ele>
        <time>2015-06-28T07:22:57Z</time>
      </trkpt>
      <trkpt lat="45.80405" lon="3.05741">
        <ele>494.74</ele>
        <time>2015-06-28T07:23:01Z</time>
      </trkpt>
      <trkpt lat="45.80426" lon="3.05737">
        <ele>490.89</ele>
        <time>2015-06-28T07:23:05Z</time>
      </trkpt>
      <trkpt lat="45.80448" lon="3.05732">
        <ele>487.53</ele>
        <time>2015-06-28T07:23:09Z</time>
      </trkpt>
      <trkpt lat="45.80474" lon="3.05719">
        <ele>485.12</ele>
        <time>2015-06-28T07:23:13Z</time>
      </trkpt>
      <trkpt lat="45.80503" lon="3.05699">
        <ele>482.24</ele>
        <time>2015-06-28T07:23:18Z</time>
      </trkpt>
      <trkpt lat="45.8055" lon="3.05665">
        <ele>479.84</ele>
        <time>2015-06-28T07:23:27Z</time>
      </trkpt>
      <trkpt lat="45.80556" lon="3.05663">
        <ele>480.32</ele>
        <time>2015-06-28T07:23:28Z</time>
      </trkpt>
      <trkpt lat="45.80562" lon="3.05662">
        <ele>479.84</ele>
        <time>2015-06-28T07:23:29Z</time>
      </trkpt>
      <trkpt lat="45.80568" lon="3.05661">
        <ele>478.87</ele>
        <time>2015-06-28T07:23:30Z</time>
      </trkpt>
      <trkpt lat="45.80573" lon="3.05662">
        <ele>478.39</ele>
        <time>2015-06-28T07:23:31Z</time>
      </trkpt>
      <trkpt lat="45.80577" lon="3.05663">
        <ele>477.91</ele>
        <time>2015-06-28T07:23:32Z</time>
      </trkpt>
      <trkpt lat="45.80599" lon="3.05686">
        <ele>476.47</ele>
        <time>2015-06-28T07:23:41Z</time>
      </trkpt>
      <trkpt lat="45.80601" lon="3.05692">
        <ele>475.99</ele>
        <time>2015-06-28T07:23:42Z</time>
      </trkpt>
      <trkpt lat="45.80603" lon="3.05698">
        <ele>476.95</ele>
        <time>2015-06-28T07:23:43Z</time>
      </trkpt>
      <trkpt lat="45.80607" lon="3.05703">
        <ele>476.47</ele>
        <time>2015-06-28T07:23:44Z</time>
      </trkpt>
      <trkpt lat="45.80611" lon="3.05708">
        <ele>475.51</ele>
        <time>2015-06-28T07:23:45Z</time>
      </trkpt>
      <trkpt lat="45.80615" lon="3.05712">
        <ele>475.99</ele>
        <time>2015-06-28T07:23:46Z</time>
      </trkpt>
      <trkpt lat="45.80651" lon="3.05731">
        <ele>472.63</ele>
        <time>2015-06-28T07:23:54Z</time>
      </trkpt>
      <trkpt lat="45.80706" lon="3.05754">
        <ele>470.7</ele>
        <time>2015-06-28T07:24:08Z</time>
      </trkpt>
      <trkpt lat="45.80755" lon="3.05786">
        <ele>467.82</ele>
        <time>2015-06-28T07:24:19Z</time>
      </trkpt>
      <trkpt lat="45.80792" lon="3.05808">
        <ele>464.45</ele>
        <time>2015-06-28T07:24:27Z</time>
      </trkpt>
      <trkpt lat="45.80802" lon="3.05812">
        <ele>463.97</ele>
        <time>2015-06-28T07:24:29Z</time>
      </trkpt>
      <trkpt lat="45.80822" lon="3.05813">
        <ele>461.57</ele>
        <time>2015-06-28T07:24:33Z</time>
      </trkpt>
      <trkpt lat="45.80841" lon="3.05811">
        <ele>459.65</ele>
        <time>2015-06-28T07:24:37Z</time>
      </trkpt>
      <trkpt lat="45.80845" lon="3.05811">
        <ele>458.69</ele>
        <time>2015-06-28T07:24:38Z</time>
      </trkpt>
      <trkpt lat="45.80849" lon="3.05812">
        <ele>458.69</ele>
        <time>2015-06-28T07:24:39Z</time>
      </trkpt>
      <trkpt lat="45.80857" lon="3.05814">
        <ele>457.72</ele>
        <time>2015-06-28T07:24:41Z</time>
      </trkpt>
      <trkpt lat="45.80889" lon="3.05815">
        <ele>455.8</ele>
        <time>2015-06-28T07:24:49Z</time>
      </trkpt>
      <trkpt lat="45.80893" lon="3.05815">
        <ele>455.8</ele>
        <time>2015-06-28T07:24:50Z</time>
      </trkpt>
      <trkpt lat="45.80897" lon="3.05814">
        <ele>455.32</ele>
        <time>2015-06-28T07:24:51Z</time>
      </trkpt>
      <trkpt lat="45.80901" lon="3.05813">
        <ele>455.32</ele>
        <time>2015-06-28T07:24:52Z</time>
      </trkpt>
      <trkpt lat="45.80904" lon="3.05811">
        <ele>454.36</ele>
        <time>2015-06-28T07:24:53Z</time>
      </trkpt>
      <trkpt lat="45.80907" lon="3.05809">
        <ele>454.84</ele>
        <time>2015-06-28T07:24:54Z</time>
      </trkpt>
      <trkpt lat="45.8091" lon="3.05806">
        <ele>454.84</ele>
        <time>2015-06-28T07:24:55Z</time>
      </trkpt>
      <trkpt lat="45.80913" lon="3.05804">
        <ele>454.36</ele>
        <time>2015-06-28T07:24:56Z</time>
      </trkpt>
      <trkpt lat="45.80938" lon="3.05775">
        <ele>453.4</ele>
        <time>2015-06-28T07:25:05Z</time>
      </trkpt>
      <trkpt lat="45.80942" lon="3.05776">
        <ele>453.4</ele>
        <time>2015-06-28T07:25:08Z</time>
      </trkpt>
      <trkpt lat="45.80943" lon="3.05778">
        <ele>453.4</ele>
        <time>2015-06-28T07:25:09Z</time>
      </trkpt>
      <trkpt lat="45.80965" lon="3.05821">
        <ele>453.88</ele>
        <time>2015-06-28T07:25:23Z</time>
      </trkpt>
      <trkpt lat="45.80982" lon="3.05834">
        <ele>454.36</ele>
        <time>2015-06-28T07:25:31Z</time>
      </trkpt>
      <trkpt lat="45.80983" lon="3.05837">
        <ele>453.88</ele>
        <time>2015-06-28T07:25:32Z</time>
      </trkpt>
      <trkpt lat="45.80983" lon="3.0584">
        <ele>454.36</ele>
        <time>2015-06-28T07:25:33Z</time>
      </trkpt>
      <trkpt lat="45.80978" lon="3.0588">
        <ele>456.76</ele>
        <time>2015-06-28T07:25:47Z</time>
      </trkpt>
      <trkpt lat="45.80968" lon="3.05927">
        <ele>459.17</ele>
        <time>2015-06-28T07:26:05Z</time>
      </trkpt>
      <trkpt lat="45.80967" lon="3.05964">
        <ele>462.05</ele>
        <time>2015-06-28T07:26:22Z</time>
      </trkpt>
      <trkpt lat="45.80955" lon="3.06005">
        <ele>464.93</ele>
        <time>2015-06-28T07:26:40Z</time>
      </trkpt>
      <trkpt lat="45.80952" lon="3.06015">
        <ele>465.9</ele>
        <time>2015-06-28T07:26:46Z</time>
      </trkpt>
      <trkpt lat="45.80952" lon="3.06017">
        <ele>465.9</ele>
        <time>2015-06-28T07:26:47Z</time>
      </trkpt>
      <trkpt lat="45.80963" lon="3.06051">
        <ele>469.26</ele>
        <time>2015-06-28T07:27:05Z</time>
      </trkpt>
      <trkpt lat="45.80974" lon="3.06077">
        <ele>472.14</ele>
        <time>2015-06-28T07:27:20Z</time>
      </trkpt>
      <trkpt lat="45.80986" lon="3.06101">
        <ele>475.51</ele>
        <time>2015-06-28T07:27:36Z</time>
      </trkpt>
      <trkpt lat="45.81004" lon="3.06113">
        <ele>478.87</ele>
        <time>2015-06-28T07:27:51Z</time>
      </trkpt>
      <trkpt lat="45.81028" lon="3.06125">
        <ele>482.24</ele>
        <time>2015-06-28T07:28:08Z</time>
      </trkpt>
      <trkpt lat="45.81054" lon="3.06137">
        <ele>485.12</ele>
        <time>2015-06-28T07:28:24Z</time>
      </trkpt>
      <trkpt lat="45.81086" lon="3.06168">
        <ele>487.05</ele>
        <time>2015-06-28T07:28:44Z</time>
      </trkpt>
      <trkpt lat="45.81111" lon="3.06206">
        <ele>489.93</ele>
        <time>2015-06-28T07:29:03Z</time>
      </trkpt>
      <trkpt lat="45.8113" lon="3.06233">
        <ele>492.81</ele>
        <time>2015-06-28T07:29:19Z</time>
      </trkpt>
      <trkpt lat="45.81152" lon="3.06265">
        <ele>494.26</ele>
        <time>2015-06-28T07:29:36Z</time>
      </trkpt>
      <trkpt lat="45.81175" lon="3.06296">
        <ele>496.18</ele>
        <time>2015-06-28T07:29:52Z</time>
      </trkpt>
      <trkpt lat="45.81201" lon="3.06335">
        <ele>498.1</ele>
        <time>2015-06-28T07:30:11Z</time>
      </trkpt>
      <trkpt lat="45.81226" lon="3.06373">
        <ele>499.06</ele>
        <time>2015-06-28T07:30:27Z</time>
      </trkpt>
      <trkpt lat="45.8125" lon="3.0643">
        <ele>499.54</ele>
        <time>2015-06-28T07:30:46Z</time>
      </trkpt>
      <trkpt lat="45.81273" lon="3.0648">
        <ele>501.95</ele>
        <time>2015-06-28T07:31:04Z</time>
      </trkpt>
      <trkpt lat="45.81306" lon="3.06486">
        <ele>504.83</ele>
        <time>2015-06-28T07:31:20Z</time>
      </trkpt>
      <trkpt lat="45.81337" lon="3.0651">
        <ele>506.75</ele>
        <time>2015-06-28T07:31:35Z</time>
      </trkpt>
      <trkpt lat="45.81357" lon="3.06546">
        <ele>508.19</ele>
        <time>2015-06-28T07:31:49Z</time>
      </trkpt>
      <trkpt lat="45.81378" lon="3.066">
        <ele>510.6</ele>
        <time>2015-06-28T07:32:07Z</time>
      </trkpt>
      <trkpt lat="45.81396" lon="3.06638">
        <ele>512.52</ele>
        <time>2015-06-28T07:32:21Z</time>
      </trkpt>
      <trkpt lat="45.81402" lon="3.06698">
        <ele>515.4</ele>
        <time>2015-06-28T07:32:40Z</time>
      </trkpt>
      <trkpt lat="45.81405" lon="3.06757">
        <ele>515.88</ele>
        <time>2015-06-28T07:32:57Z</time>
      </trkpt>
      <trkpt lat="45.81414" lon="3.06817">
        <ele>515.88</ele>
        <time>2015-06-28T07:33:12Z</time>
      </trkpt>
      <trkpt lat="45.8142" lon="3.06878">
        <ele>518.29</ele>
        <time>2015-06-28T07:33:29Z</time>
      </trkpt>
      <trkpt lat="45.81426" lon="3.06924">
        <ele>521.17</ele>
        <time>2015-06-28T07:33:43Z</time>
      </trkpt>
      <trkpt lat="45.81429" lon="3.06981">
        <ele>523.09</ele>
        <time>2015-06-28T07:33:59Z</time>
      </trkpt>
      <trkpt lat="45.81436" lon="3.07035">
        <ele>524.06</ele>
        <time>2015-06-28T07:34:14Z</time>
      </trkpt>
      <trkpt lat="45.8144" lon="3.07096">
        <ele>525.98</ele>
        <time>2015-06-28T07:34:31Z</time>
      </trkpt>
      <trkpt lat="45.81452" lon="3.07155">
        <ele>526.94</ele>
        <time>2015-06-28T07:34:47Z</time>
      </trkpt>
      <trkpt lat="45.8146" lon="3.07211">
        <ele>527.9</ele>
        <time>2015-06-28T07:35:01Z</time>
      </trkpt>
      <trkpt lat="45.81466" lon="3.07261">
        <ele>528.86</ele>
        <time>2015-06-28T07:35:14Z</time>
      </trkpt>
      <trkpt lat="45.81464" lon="3.07331">
        <ele>529.82</ele>
        <time>2015-06-28T07:35:31Z</time>
      </trkpt>
      <trkpt lat="45.81446" lon="3.07399">
        <ele>531.27</ele>
        <time>2015-06-28T07:35:48Z</time>
      </trkpt>
      <trkpt lat="45.8143" lon="3.07458">
        <ele>532.71</ele>
        <time>2015-06-28T07:36:04Z</time>
      </trkpt>
      <trkpt lat="45.81412" lon="3.07504">
        <ele>534.15</ele>
        <time>2015-06-28T07:36:18Z</time>
      </trkpt>
      <trkpt lat="45.8139" lon="3.07541">
        <ele>537.51</ele>
        <time>2015-06-28T07:36:31Z</time>
      </trkpt>
      <trkpt lat="45.81375" lon="3.07581">
        <ele>541.36</ele>
        <time>2015-06-28T07:36:42Z</time>
      </trkpt>
      <trkpt lat="45.81365" lon="3.07622">
        <ele>541.36</ele>
        <time>2015-06-28T07:36:56Z</time>
      </trkpt>
      <trkpt lat="45.81359" lon="3.07694">
        <ele>539.44</ele>
        <time>2015-06-28T07:37:09Z</time>
      </trkpt>
      <trkpt lat="45.81336" lon="3.07731">
        <ele>541.84</ele>
        <time>2015-06-28T07:37:21Z</time>
      </trkpt>
      <trkpt lat="45.81311" lon="3.07761">
        <ele>544.72</ele>
        <time>2015-06-28T07:37:33Z</time>
      </trkpt>
      <trkpt lat="45.81292" lon="3.07814">
        <ele>546.65</ele>
        <time>2015-06-28T07:37:49Z</time>
      </trkpt>
      <trkpt lat="45.81292" lon="3.07863">
        <ele>549.53</ele>
        <time>2015-06-28T07:38:03Z</time>
      </trkpt>
      <trkpt lat="45.8131" lon="3.07883">
        <ele>549.05</ele>
        <time>2015-06-28T07:38:10Z</time>
      </trkpt>
      <trkpt lat="45.81313" lon="3.07888">
        <ele>549.53</ele>
        <time>2015-06-28T07:38:11Z</time>
      </trkpt>
      <trkpt lat="45.81327" lon="3.07917">
        <ele>548.57</ele>
        <time>2015-06-28T07:38:16Z</time>
      </trkpt>
      <trkpt lat="45.81346" lon="3.0796">
        <ele>548.09</ele>
        <time>2015-06-28T07:38:27Z</time>
      </trkpt>
      <trkpt lat="45.81352" lon="3.08035">
        <ele>549.05</ele>
        <time>2015-06-28T07:38:42Z</time>
      </trkpt>
      <trkpt lat="45.81358" lon="3.08074">
        <ele>551.93</ele>
        <time>2015-06-28T07:38:51Z</time>
      </trkpt>
      <trkpt lat="45.81368" lon="3.08129">
        <ele>553.86</ele>
        <time>2015-06-28T07:39:04Z</time>
      </trkpt>
      <trkpt lat="45.81368" lon="3.08192">
        <ele>555.3</ele>
        <time>2015-06-28T07:39:20Z</time>
      </trkpt>
      <trkpt lat="45.81357" lon="3.08257">
        <ele>556.74</ele>
        <time>2015-06-28T07:39:37Z</time>
      </trkpt>
      <trkpt lat="45.8136" lon="3.08309">
        <ele>560.11</ele>
        <time>2015-06-28T07:39:52Z</time>
      </trkpt>
      <trkpt lat="45.81357" lon="3.08368">
        <ele>562.03</ele>
        <time>2015-06-28T07:40:09Z</time>
      </trkpt>
      <trkpt lat="45.81346" lon="3.08425">
        <ele>563.95</ele>
        <time>2015-06-28T07:40:24Z</time>
      </trkpt>
      <trkpt lat="45.81328" lon="3.08471">
        <ele>564.43</ele>
        <time>2015-06-28T07:40:37Z</time>
      </trkpt>
      <trkpt lat="45.81303" lon="3.08524">
        <ele>564.43</ele>
        <time>2015-06-28T07:40:51Z</time>
      </trkpt>
      <trkpt lat="45.81272" lon="3.08577">
        <ele>563.95</ele>
        <time>2015-06-28T07:41:05Z</time>
      </trkpt>
      <trkpt lat="45.81243" lon="3.08636">
        <ele>564.43</ele>
        <time>2015-06-28T07:41:23Z</time>
      </trkpt>
      <trkpt lat="45.81216" lon="3.08681">
        <ele>564.43</ele>
        <time>2015-06-28T07:41:39Z</time>
      </trkpt>
      <trkpt lat="45.81215" lon="3.08683">
        <ele>563.95</ele>
        <time>2015-06-28T07:41:40Z</time>
      </trkpt>
      <trkpt lat="45.81215" lon="3.08683">
        <ele>563.47</ele>
        <time>2015-06-28T07:41:51Z</time>
      </trkpt>
      <trkpt lat="45.81215" lon="3.08682">
        <ele>562.99</ele>
        <time>2015-06-28T07:42:17Z</time>
      </trkpt>
      <trkpt lat="45.81216" lon="3.08683">
        <ele>563.47</ele>
        <time>2015-06-28T07:42:42Z</time>
      </trkpt>
      <trkpt lat="45.81217" lon="3.08683">
        <ele>562.99</ele>
        <time>2015-06-28T07:43:05Z</time>
      </trkpt>
      <trkpt lat="45.81218" lon="3.08684">
        <ele>563.47</ele>
        <time>2015-06-28T07:43:19Z</time>
      </trkpt>
      <trkpt lat="45.81218" lon="3.08685">
        <ele>563.47</ele>
        <time>2015-06-28T07:43:20Z</time>
      </trkpt>
      <trkpt lat="45.8122" lon="3.08685">
        <ele>563.47</ele>
        <time>2015-06-28T07:43:21Z</time>
      </trkpt>
      <trkpt lat="45.81221" lon="3.08685">
        <ele>563.47</ele>
        <time>2015-06-28T07:43:22Z</time>
      </trkpt>
      <trkpt lat="45.81222" lon="3.08684">
        <ele>563.47</ele>
        <time>2015-06-28T07:43:23Z</time>
      </trkpt>
      <trkpt lat="45.81224" lon="3.08683">
        <ele>563.47</ele>
        <time>2015-06-28T07:43:24Z</time>
      </trkpt>
      <trkpt lat="45.81226" lon="3.08682">
        <ele>562.51</ele>
        <time>2015-06-28T07:43:25Z</time>
      </trkpt>
      <trkpt lat="45.81227" lon="3.08681">
        <ele>562.51</ele>
        <time>2015-06-28T07:43:26Z</time>
      </trkpt>
      <trkpt lat="45.81229" lon="3.0868">
        <ele>562.51</ele>
        <time>2015-06-28T07:43:27Z</time>
      </trkpt>
      <trkpt lat="45.81257" lon="3.08675">
        <ele>559.62</ele>
        <time>2015-06-28T07:43:42Z</time>
      </trkpt>
      <trkpt lat="45.81269" lon="3.08686">
        <ele>557.7</ele>
        <time>2015-06-28T07:43:49Z</time>
      </trkpt>
      <trkpt lat="45.8129" lon="3.08705">
        <ele>554.34</ele>
        <time>2015-06-28T07:43:55Z</time>
      </trkpt>
      <trkpt lat="45.81294" lon="3.08707">
        <ele>553.86</ele>
        <time>2015-06-28T07:43:56Z</time>
      </trkpt>
      <trkpt lat="45.81299" lon="3.08709">
        <ele>552.9</ele>
        <time>2015-06-28T07:43:57Z</time>
      </trkpt>
      <trkpt lat="45.81319" lon="3.08717">
        <ele>549.53</ele>
        <time>2015-06-28T07:44:01Z</time>
      </trkpt>
      <trkpt lat="45.81324" lon="3.0872">
        <ele>550.01</ele>
        <time>2015-06-28T07:44:02Z</time>
      </trkpt>
      <trkpt lat="45.81328" lon="3.08724">
        <ele>548.57</ele>
        <time>2015-06-28T07:44:03Z</time>
      </trkpt>
      <trkpt lat="45.81368" lon="3.08746">
        <ele>545.69</ele>
        <time>2015-06-28T07:44:11Z</time>
      </trkpt>
      <trkpt lat="45.81373" lon="3.08749">
        <ele>546.17</ele>
        <time>2015-06-28T07:44:12Z</time>
      </trkpt>
      <trkpt lat="45.81377" lon="3.08753">
        <ele>545.2</ele>
        <time>2015-06-28T07:44:13Z</time>
      </trkpt>
      <trkpt lat="45.81407" lon="3.08807">
        <ele>545.2</ele>
        <time>2015-06-28T07:44:26Z</time>
      </trkpt>
      <trkpt lat="45.8144" lon="3.08858">
        <ele>542.32</ele>
        <time>2015-06-28T07:44:41Z</time>
      </trkpt>
      <trkpt lat="45.8147" lon="3.08896">
        <ele>538.48</ele>
        <time>2015-06-28T07:44:54Z</time>
      </trkpt>
      <trkpt lat="45.81489" lon="3.08923">
        <ele>534.63</ele>
        <time>2015-06-28T07:45:03Z</time>
      </trkpt>
      <trkpt lat="45.81492" lon="3.08926">
        <ele>534.63</ele>
        <time>2015-06-28T07:45:04Z</time>
      </trkpt>
      <trkpt lat="45.81519" lon="3.08937">
        <ele>531.75</ele>
        <time>2015-06-28T07:45:16Z</time>
      </trkpt>
      <trkpt lat="45.81557" lon="3.0894">
        <ele>528.86</ele>
        <time>2015-06-28T07:45:32Z</time>
      </trkpt>
      <trkpt lat="45.81592" lon="3.08954">
        <ele>525.5</ele>
        <time>2015-06-28T07:45:44Z</time>
      </trkpt>
      <trkpt lat="45.81616" lon="3.0894">
        <ele>525.02</ele>
        <time>2015-06-28T07:45:55Z</time>
      </trkpt>
      <trkpt lat="45.81643" lon="3.08935">
        <ele>523.09</ele>
        <time>2015-06-28T07:46:06Z</time>
      </trkpt>
      <trkpt lat="45.81666" lon="3.08906">
        <ele>520.21</ele>
        <time>2015-06-28T07:46:17Z</time>
      </trkpt>
      <trkpt lat="45.81685" lon="3.08883">
        <ele>516.85</ele>
        <time>2015-06-28T07:46:26Z</time>
      </trkpt>
      <trkpt lat="45.81708" lon="3.08866">
        <ele>513</ele>
        <time>2015-06-28T07:46:36Z</time>
      </trkpt>
      <trkpt lat="45.81735" lon="3.08857">
        <ele>509.64</ele>
        <time>2015-06-28T07:46:46Z</time>
      </trkpt>
      <trkpt lat="45.81738" lon="3.08856">
        <ele>509.16</ele>
        <time>2015-06-28T07:46:47Z</time>
      </trkpt>
      <trkpt lat="45.81762" lon="3.08854">
        <ele>505.79</ele>
        <time>2015-06-28T07:46:59Z</time>
      </trkpt>
      <trkpt lat="45.81779" lon="3.08847">
        <ele>502.43</ele>
        <time>2015-06-28T07:47:06Z</time>
      </trkpt>
      <trkpt lat="45.81809" lon="3.08845">
        <ele>499.06</ele>
        <time>2015-06-28T07:47:16Z</time>
      </trkpt>
      <trkpt lat="45.81815" lon="3.08848">
        <ele>498.58</ele>
        <time>2015-06-28T07:47:18Z</time>
      </trkpt>
      <trkpt lat="45.81846" lon="3.0886">
        <ele>495.22</ele>
        <time>2015-06-28T07:47:31Z</time>
      </trkpt>
      <trkpt lat="45.81868" lon="3.08871">
        <ele>491.85</ele>
        <time>2015-06-28T07:47:38Z</time>
      </trkpt>
      <trkpt lat="45.81872" lon="3.08874">
        <ele>491.85</ele>
        <time>2015-06-28T07:47:39Z</time>
      </trkpt>
      <trkpt lat="45.8189" lon="3.08894">
        <ele>488.49</ele>
        <time>2015-06-28T07:47:47Z</time>
      </trkpt>
      <trkpt lat="45.819" lon="3.08904">
        <ele>486.08</ele>
        <time>2015-06-28T07:47:52Z</time>
      </trkpt>
      <trkpt lat="45.8191" lon="3.08908">
        <ele>482.24</ele>
        <time>2015-06-28T07:47:57Z</time>
      </trkpt>
      <trkpt lat="45.81912" lon="3.08908">
        <ele>482.24</ele>
        <time>2015-06-28T07:47:58Z</time>
      </trkpt>
      <trkpt lat="45.81924" lon="3.08912">
        <ele>480.8</ele>
        <time>2015-06-28T07:48:03Z</time>
      </trkpt>
      <trkpt lat="45.81934" lon="3.08915">
        <ele>477.91</ele>
        <time>2015-06-28T07:48:08Z</time>
      </trkpt>
      <trkpt lat="45.81949" lon="3.08919">
        <ele>474.55</ele>
        <time>2015-06-28T07:48:14Z</time>
      </trkpt>
      <trkpt lat="45.81952" lon="3.0892">
        <ele>474.07</ele>
        <time>2015-06-28T07:48:15Z</time>
      </trkpt>
      <trkpt lat="45.81967" lon="3.08924">
        <ele>471.18</ele>
        <time>2015-06-28T07:48:21Z</time>
      </trkpt>
      <trkpt lat="45.81971" lon="3.08925">
        <ele>470.22</ele>
        <time>2015-06-28T07:48:23Z</time>
      </trkpt>
      <trkpt lat="45.81995" lon="3.0892">
        <ele>467.34</ele>
        <time>2015-06-28T07:48:31Z</time>
      </trkpt>
      <trkpt lat="45.82014" lon="3.08916">
        <ele>464.93</ele>
        <time>2015-06-28T07:48:38Z</time>
      </trkpt>
      <trkpt lat="45.82038" lon="3.08907">
        <ele>461.57</ele>
        <time>2015-06-28T07:48:45Z</time>
      </trkpt>
      <trkpt lat="45.82066" lon="3.08898">
        <ele>457.72</ele>
        <time>2015-06-28T07:48:51Z</time>
      </trkpt>
      <trkpt lat="45.82074" lon="3.08893">
        <ele>457.24</ele>
        <time>2015-06-28T07:48:53Z</time>
      </trkpt>
      <trkpt lat="45.82093" lon="3.08874">
        <ele>453.88</ele>
        <time>2015-06-28T07:48:59Z</time>
      </trkpt>
      <trkpt lat="45.82098" lon="3.08868">
        <ele>452.92</ele>
        <time>2015-06-28T07:49:01Z</time>
      </trkpt>
      <trkpt lat="45.82109" lon="3.08854">
        <ele>450.03</ele>
        <time>2015-06-28T07:49:07Z</time>
      </trkpt>
      <trkpt lat="45.8211" lon="3.08852">
        <ele>450.03</ele>
        <time>2015-06-28T07:49:08Z</time>
      </trkpt>
      <trkpt lat="45.82116" lon="3.08839">
        <ele>447.15</ele>
        <time>2015-06-28T07:49:12Z</time>
      </trkpt>
      <trkpt lat="45.82128" lon="3.08821">
        <ele>444.27</ele>
        <time>2015-06-28T07:49:17Z</time>
      </trkpt>
      <trkpt lat="45.82144" lon="3.08794">
        <ele>440.42</ele>
        <time>2015-06-28T07:49:24Z</time>
      </trkpt>
      <trkpt lat="45.82164" lon="3.08779">
        <ele>437.54</ele>
        <time>2015-06-28T07:49:32Z</time>
      </trkpt>
      <trkpt lat="45.82186" lon="3.08767">
        <ele>433.69</ele>
        <time>2015-06-28T07:49:42Z</time>
      </trkpt>
      <trkpt lat="45.82188" lon="3.08765">
        <ele>433.69</ele>
        <time>2015-06-28T07:49:43Z</time>
      </trkpt>
      <trkpt lat="45.82207" lon="3.08754">
        <ele>429.85</ele>
        <time>2015-06-28T07:49:51Z</time>
      </trkpt>
      <trkpt lat="45.8221" lon="3.08753">
        <ele>429.85</ele>
        <time>2015-06-28T07:49:52Z</time>
      </trkpt>
      <trkpt lat="45.82214" lon="3.0875">
        <ele>428.4</ele>
        <time>2015-06-28T07:49:54Z</time>
      </trkpt>
      <trkpt lat="45.82224" lon="3.08743">
        <ele>425.52</ele>
        <time>2015-06-28T07:50:00Z</time>
      </trkpt>
      <trkpt lat="45.82237" lon="3.08734">
        <ele>422.16</ele>
        <time>2015-06-28T07:50:06Z</time>
      </trkpt>
      <trkpt lat="45.82256" lon="3.08734">
        <ele>419.27</ele>
        <time>2015-06-28T07:50:13Z</time>
      </trkpt>
      <trkpt lat="45.82274" lon="3.08729">
        <ele>416.87</ele>
        <time>2015-06-28T07:50:20Z</time>
      </trkpt>
      <trkpt lat="45.82284" lon="3.08721">
        <ele>415.43</ele>
        <time>2015-06-28T07:50:26Z</time>
      </trkpt>
      <trkpt lat="45.82309" lon="3.08701">
        <ele>412.06</ele>
        <time>2015-06-28T07:50:37Z</time>
      </trkpt>
      <trkpt lat="45.82325" lon="3.08687">
        <ele>410.14</ele>
        <time>2015-06-28T07:50:44Z</time>
      </trkpt>
      <trkpt lat="45.82358" lon="3.08661">
        <ele>407.26</ele>
        <time>2015-06-28T07:50:58Z</time>
      </trkpt>
      <trkpt lat="45.82396" lon="3.0863">
        <ele>404.85</ele>
        <time>2015-06-28T07:51:14Z</time>
      </trkpt>
      <trkpt lat="45.82425" lon="3.086">
        <ele>401.97</ele>
        <time>2015-06-28T07:51:26Z</time>
      </trkpt>
      <trkpt lat="45.82451" lon="3.08576">
        <ele>398.6</ele>
        <time>2015-06-28T07:51:37Z</time>
      </trkpt>
      <trkpt lat="45.82471" lon="3.08568">
        <ele>395.24</ele>
        <time>2015-06-28T07:51:44Z</time>
      </trkpt>
      <trkpt lat="45.82488" lon="3.08561">
        <ele>393.32</ele>
        <time>2015-06-28T07:51:50Z</time>
      </trkpt>
      <trkpt lat="45.8252" lon="3.08555">
        <ele>389.95</ele>
        <time>2015-06-28T07:51:59Z</time>
      </trkpt>
      <trkpt lat="45.8253" lon="3.08546">
        <ele>388.03</ele>
        <time>2015-06-28T07:52:02Z</time>
      </trkpt>
      <trkpt lat="45.82532" lon="3.08542">
        <ele>388.03</ele>
        <time>2015-06-28T07:52:03Z</time>
      </trkpt>
      <trkpt lat="45.82558" lon="3.08516">
        <ele>385.63</ele>
        <time>2015-06-28T07:52:16Z</time>
      </trkpt>
      <trkpt lat="45.82604" lon="3.08515">
        <ele>384.18</ele>
        <time>2015-06-28T07:52:29Z</time>
      </trkpt>
      <trkpt lat="45.82639" lon="3.0852">
        <ele>382.74</ele>
        <time>2015-06-28T07:52:36Z</time>
      </trkpt>
      <trkpt lat="45.82644" lon="3.08519">
        <ele>383.22</ele>
        <time>2015-06-28T07:52:37Z</time>
      </trkpt>
      <trkpt lat="45.82669" lon="3.08513">
        <ele>381.3</ele>
        <time>2015-06-28T07:52:42Z</time>
      </trkpt>
      <trkpt lat="45.82678" lon="3.08511">
        <ele>380.82</ele>
        <time>2015-06-28T07:52:44Z</time>
      </trkpt>
      <trkpt lat="45.82682" lon="3.08508">
        <ele>381.3</ele>
        <time>2015-06-28T07:52:45Z</time>
      </trkpt>
      <trkpt lat="45.82686" lon="3.08505">
        <ele>380.82</ele>
        <time>2015-06-28T07:52:46Z</time>
      </trkpt>
      <trkpt lat="45.82689" lon="3.08501">
        <ele>380.82</ele>
        <time>2015-06-28T07:52:47Z</time>
      </trkpt>
      <trkpt lat="45.82692" lon="3.08496">
        <ele>380.34</ele>
        <time>2015-06-28T07:52:48Z</time>
      </trkpt>
      <trkpt lat="45.82694" lon="3.08491">
        <ele>380.34</ele>
        <time>2015-06-28T07:52:49Z</time>
      </trkpt>
      <trkpt lat="45.82695" lon="3.08485">
        <ele>380.82</ele>
        <time>2015-06-28T07:52:50Z</time>
      </trkpt>
      <trkpt lat="45.82696" lon="3.08479">
        <ele>381.3</ele>
        <time>2015-06-28T07:52:51Z</time>
      </trkpt>
      <trkpt lat="45.82718" lon="3.08444">
        <ele>380.82</ele>
        <time>2015-06-28T07:53:02Z</time>
      </trkpt>
      <trkpt lat="45.82763" lon="3.08451">
        <ele>382.74</ele>
        <time>2015-06-28T07:53:17Z</time>
      </trkpt>
      <trkpt lat="45.82791" lon="3.08447">
        <ele>384.66</ele>
        <time>2015-06-28T07:53:28Z</time>
      </trkpt>
      <trkpt lat="45.82827" lon="3.08434">
        <ele>386.59</ele>
        <time>2015-06-28T07:53:45Z</time>
      </trkpt>
      <trkpt lat="45.82838" lon="3.08431">
        <ele>387.07</ele>
        <time>2015-06-28T07:53:56Z</time>
      </trkpt>
      <trkpt lat="45.82839" lon="3.08431">
        <ele>386.59</ele>
        <time>2015-06-28T07:53:57Z</time>
      </trkpt>
      <trkpt lat="45.82841" lon="3.0843">
        <ele>387.07</ele>
        <time>2015-06-28T07:53:58Z</time>
      </trkpt>
      <trkpt lat="45.82844" lon="3.08429">
        <ele>387.07</ele>
        <time>2015-06-28T07:53:59Z</time>
      </trkpt>
      <trkpt lat="45.82847" lon="3.08428">
        <ele>387.07</ele>
        <time>2015-06-28T07:54:00Z</time>
      </trkpt>
      <trkpt lat="45.82884" lon="3.08404">
        <ele>388.99</ele>
        <time>2015-06-28T07:54:15Z</time>
      </trkpt>
      <trkpt lat="45.82932" lon="3.08369">
        <ele>390.91</ele>
        <time>2015-06-28T07:54:34Z</time>
      </trkpt>
      <trkpt lat="45.82979" lon="3.08323">
        <ele>392.36</ele>
        <time>2015-06-28T07:54:53Z</time>
      </trkpt>
      <trkpt lat="45.83013" lon="3.08322">
        <ele>391.87</ele>
        <time>2015-06-28T07:55:04Z</time>
      </trkpt>
      <trkpt lat="45.83035" lon="3.08315">
        <ele>390.91</ele>
        <time>2015-06-28T07:55:15Z</time>
      </trkpt>
      <trkpt lat="45.83036" lon="3.08314">
        <ele>391.39</ele>
        <time>2015-06-28T07:55:16Z</time>
      </trkpt>
      <trkpt lat="45.83038" lon="3.08312">
        <ele>391.87</ele>
        <time>2015-06-28T07:55:17Z</time>
      </trkpt>
      <trkpt lat="45.83039" lon="3.0831">
        <ele>390.91</ele>
        <time>2015-06-28T07:55:18Z</time>
      </trkpt>
      <trkpt lat="45.83039" lon="3.08307">
        <ele>391.39</ele>
        <time>2015-06-28T07:55:19Z</time>
      </trkpt>
      <trkpt lat="45.83039" lon="3.08304">
        <ele>390.91</ele>
        <time>2015-06-28T07:55:20Z</time>
      </trkpt>
      <trkpt lat="45.83038" lon="3.08301">
        <ele>390.91</ele>
        <time>2015-06-28T07:55:21Z</time>
      </trkpt>
      <trkpt lat="45.83026" lon="3.08236">
        <ele>393.32</ele>
        <time>2015-06-28T07:55:40Z</time>
      </trkpt>
      <trkpt lat="45.83013" lon="3.08161">
        <ele>395.72</ele>
        <time>2015-06-28T07:56:01Z</time>
      </trkpt>
      <trkpt lat="45.83004" lon="3.08109">
        <ele>397.16</ele>
        <time>2015-06-28T07:56:17Z</time>
      </trkpt>
      <trkpt lat="45.8299" lon="3.0803">
        <ele>399.57</ele>
        <time>2015-06-28T07:56:38Z</time>
      </trkpt>
      <trkpt lat="45.82977" lon="3.07979">
        <ele>402.45</ele>
        <time>2015-06-28T07:56:54Z</time>
      </trkpt>
      <trkpt lat="45.82973" lon="3.07958">
        <ele>402.93</ele>
        <time>2015-06-28T07:57:02Z</time>
      </trkpt>
      <trkpt lat="45.82972" lon="3.07954">
        <ele>403.41</ele>
        <time>2015-06-28T07:57:03Z</time>
      </trkpt>
      <trkpt lat="45.82971" lon="3.0795">
        <ele>403.89</ele>
        <time>2015-06-28T07:57:04Z</time>
      </trkpt>
      <trkpt lat="45.8296" lon="3.07908">
        <ele>405.81</ele>
        <time>2015-06-28T07:57:20Z</time>
      </trkpt>
      <trkpt lat="45.82945" lon="3.07864">
        <ele>406.77</ele>
        <time>2015-06-28T07:57:35Z</time>
      </trkpt>
      <trkpt lat="45.8293" lon="3.07817">
        <ele>408.22</ele>
        <time>2015-06-28T07:57:54Z</time>
      </trkpt>
      <trkpt lat="45.82931" lon="3.07795">
        <ele>408.7</ele>
        <time>2015-06-28T07:58:06Z</time>
      </trkpt>
      <trkpt lat="45.82929" lon="3.07795">
        <ele>409.18</ele>
        <time>2015-06-28T07:58:07Z</time>
      </trkpt>
      <trkpt lat="45.82928" lon="3.07794">
        <ele>409.18</ele>
        <time>2015-06-28T07:58:08Z</time>
      </trkpt>
      <trkpt lat="45.82928" lon="3.07793">
        <ele>409.66</ele>
        <time>2015-06-28T07:58:09Z</time>
      </trkpt>
      <trkpt lat="45.82928" lon="3.07791">
        <ele>409.66</ele>
        <time>2015-06-28T07:58:10Z</time>
      </trkpt>
      <trkpt lat="45.82929" lon="3.07788">
        <ele>409.18</ele>
        <time>2015-06-28T07:58:11Z</time>
      </trkpt>
      <trkpt lat="45.82929" lon="3.07786">
        <ele>409.66</ele>
        <time>2015-06-28T07:58:12Z</time>
      </trkpt>
      <trkpt lat="45.82929" lon="3.07784">
        <ele>409.66</ele>
        <time>2015-06-28T07:58:13Z</time>
      </trkpt>
      <trkpt lat="45.8293" lon="3.07782">
        <ele>409.66</ele>
        <time>2015-06-28T07:58:14Z</time>
      </trkpt>
      <trkpt lat="45.8293" lon="3.07779">
        <ele>409.66</ele>
        <time>2015-06-28T07:58:15Z</time>
      </trkpt>
      <trkpt lat="45.8293" lon="3.07777">
        <ele>409.18</ele>
        <time>2015-06-28T07:58:16Z</time>
      </trkpt>
      <trkpt lat="45.82931" lon="3.07775">
        <ele>409.18</ele>
        <time>2015-06-28T07:58:17Z</time>
      </trkpt>
      <trkpt lat="45.8293" lon="3.07773">
        <ele>410.14</ele>
        <time>2015-06-28T07:58:18Z</time>
      </trkpt>
      <trkpt lat="45.82929" lon="3.07771">
        <ele>410.14</ele>
        <time>2015-06-28T07:58:19Z</time>
      </trkpt>
      <trkpt lat="45.82929" lon="3.07769">
        <ele>410.62</ele>
        <time>2015-06-28T07:58:20Z</time>
      </trkpt>
      <trkpt lat="45.82929" lon="3.07767">
        <ele>410.14</ele>
        <time>2015-06-28T07:58:21Z</time>
      </trkpt>
      <trkpt lat="45.8293" lon="3.07765">
        <ele>410.62</ele>
        <time>2015-06-28T07:58:22Z</time>
      </trkpt>
      <trkpt lat="45.82928" lon="3.0776">
        <ele>411.1</ele>
        <time>2015-06-28T07:58:24Z</time>
      </trkpt>
      <trkpt lat="45.82915" lon="3.07737">
        <ele>411.58</ele>
        <time>2015-06-28T07:58:36Z</time>
      </trkpt>
      <trkpt lat="45.82915" lon="3.07736">
        <ele>410.62</ele>
        <time>2015-06-28T07:58:37Z</time>
      </trkpt>
      <trkpt lat="45.82914" lon="3.07736">
        <ele>411.58</ele>
        <time>2015-06-28T07:58:38Z</time>
      </trkpt>
      <trkpt lat="45.82913" lon="3.07736">
        <ele>411.1</ele>
        <time>2015-06-28T07:58:39Z</time>
      </trkpt>
      <trkpt lat="45.82911" lon="3.07736">
        <ele>411.1</ele>
        <time>2015-06-28T07:58:40Z</time>
      </trkpt>
      <trkpt lat="45.8291" lon="3.07736">
        <ele>411.1</ele>
        <time>2015-06-28T07:58:41Z</time>
      </trkpt>
      <trkpt lat="45.82908" lon="3.07737">
        <ele>411.58</ele>
        <time>2015-06-28T07:58:42Z</time>
      </trkpt>
      <trkpt lat="45.82906" lon="3.07738">
        <ele>411.1</ele>
        <time>2015-06-28T07:58:43Z</time>
      </trkpt>
      <trkpt lat="45.82904" lon="3.07739">
        <ele>411.58</ele>
        <time>2015-06-28T07:58:44Z</time>
      </trkpt>
      <trkpt lat="45.82902" lon="3.0774">
        <ele>411.1</ele>
        <time>2015-06-28T07:58:45Z</time>
      </trkpt>
      <trkpt lat="45.82888" lon="3.07743">
        <ele>411.58</ele>
        <time>2015-06-28T07:58:57Z</time>
      </trkpt>
      <trkpt lat="45.82881" lon="3.07744">
        <ele>410.62</ele>
        <time>2015-06-28T07:59:01Z</time>
      </trkpt>
      <trkpt lat="45.82879" lon="3.07744">
        <ele>412.06</ele>
        <time>2015-06-28T07:59:02Z</time>
      </trkpt>
      <trkpt lat="45.82876" lon="3.07745">
        <ele>412.06</ele>
        <time>2015-06-28T07:59:03Z</time>
      </trkpt>
      <trkpt lat="45.82874" lon="3.07745">
        <ele>411.1</ele>
        <time>2015-06-28T07:59:04Z</time>
      </trkpt>
      <trkpt lat="45.82872" lon="3.07743">
        <ele>411.1</ele>
        <time>2015-06-28T07:59:05Z</time>
      </trkpt>
      <trkpt lat="45.8287" lon="3.07742">
        <ele>411.1</ele>
        <time>2015-06-28T07:59:06Z</time>
      </trkpt>
      <trkpt lat="45.82868" lon="3.07739">
        <ele>411.1</ele>
        <time>2015-06-28T07:59:07Z</time>
      </trkpt>
      <trkpt lat="45.82868" lon="3.07737">
        <ele>411.58</ele>
        <time>2015-06-28T07:59:08Z</time>
      </trkpt>
      <trkpt lat="45.82858" lon="3.07696">
        <ele>411.58</ele>
        <time>2015-06-28T07:59:23Z</time>
      </trkpt>
      <trkpt lat="45.82854" lon="3.07655">
        <ele>413.02</ele>
        <time>2015-06-28T07:59:37Z</time>
      </trkpt>
      <trkpt lat="45.8286" lon="3.07609">
        <ele>414.95</ele>
        <time>2015-06-28T07:59:51Z</time>
      </trkpt>
      <trkpt lat="45.82865" lon="3.07597">
        <ele>415.91</ele>
        <time>2015-06-28T07:59:56Z</time>
      </trkpt>
      <trkpt lat="45.82865" lon="3.07594">
        <ele>415.91</ele>
        <time>2015-06-28T07:59:57Z</time>
      </trkpt>
      <trkpt lat="45.82865" lon="3.07591">
        <ele>415.91</ele>
        <time>2015-06-28T07:59:58Z</time>
      </trkpt>
      <trkpt lat="45.82865" lon="3.07547">
        <ele>416.39</ele>
        <time>2015-06-28T08:00:13Z</time>
      </trkpt>
      <trkpt lat="45.82868" lon="3.0748">
        <ele>417.83</ele>
        <time>2015-06-28T08:00:32Z</time>
      </trkpt>
      <trkpt lat="45.82871" lon="3.07429">
        <ele>419.27</ele>
        <time>2015-06-28T08:00:50Z</time>
      </trkpt>
      <trkpt lat="45.82866" lon="3.07386">
        <ele>421.19</ele>
        <time>2015-06-28T08:01:05Z</time>
      </trkpt>
      <trkpt lat="45.82867" lon="3.0733">
        <ele>422.16</ele>
        <time>2015-06-28T08:01:23Z</time>
      </trkpt>
      <trkpt lat="45.82866" lon="3.07275">
        <ele>424.08</ele>
        <time>2015-06-28T08:01:41Z</time>
      </trkpt>
      <trkpt lat="45.82865" lon="3.07215">
        <ele>425.52</ele>
        <time>2015-06-28T08:02:01Z</time>
      </trkpt>
      <trkpt lat="45.82862" lon="3.07148">
        <ele>427.92</ele>
        <time>2015-06-28T08:02:23Z</time>
      </trkpt>
      <trkpt lat="45.82866" lon="3.0708">
        <ele>429.85</ele>
        <time>2015-06-28T08:02:45Z</time>
      </trkpt>
      <trkpt lat="45.82877" lon="3.07021">
        <ele>430.81</ele>
        <time>2015-06-28T08:03:05Z</time>
      </trkpt>
      <trkpt lat="45.82882" lon="3.06958">
        <ele>433.69</ele>
        <time>2015-06-28T08:03:26Z</time>
      </trkpt>
      <trkpt lat="45.8288" lon="3.06897">
        <ele>435.61</ele>
        <time>2015-06-28T08:03:47Z</time>
      </trkpt>
      <trkpt lat="45.8288" lon="3.06838">
        <ele>438.02</ele>
        <time>2015-06-28T08:04:07Z</time>
      </trkpt>
      <trkpt lat="45.82883" lon="3.06782">
        <ele>439.46</ele>
        <time>2015-06-28T08:04:26Z</time>
      </trkpt>
      <trkpt lat="45.82892" lon="3.06735">
        <ele>441.38</ele>
        <time>2015-06-28T08:04:42Z</time>
      </trkpt>
      <trkpt lat="45.82883" lon="3.06708">
        <ele>442.34</ele>
        <time>2015-06-28T08:04:55Z</time>
      </trkpt>
      <trkpt lat="45.82868" lon="3.06701">
        <ele>442.82</ele>
        <time>2015-06-28T08:05:08Z</time>
      </trkpt>
      <trkpt lat="45.82869" lon="3.06698">
        <ele>442.34</ele>
        <time>2015-06-28T08:05:22Z</time>
      </trkpt>
      <trkpt lat="45.8287" lon="3.06702">
        <ele>442.82</ele>
        <time>2015-06-28T08:05:53Z</time>
      </trkpt>
      <trkpt lat="45.82869" lon="3.06698">
        <ele>442.82</ele>
        <time>2015-06-28T08:06:29Z</time>
      </trkpt>
      <trkpt lat="45.8287" lon="3.06697">
        <ele>442.82</ele>
        <time>2015-06-28T08:07:02Z</time>
      </trkpt>
      <trkpt lat="45.82871" lon="3.06699">
        <ele>442.82</ele>
        <time>2015-06-28T08:07:40Z</time>
      </trkpt>
      <trkpt lat="45.82873" lon="3.06698">
        <ele>442.82</ele>
        <time>2015-06-28T08:08:15Z</time>
      </trkpt>
      <trkpt lat="45.82872" lon="3.067">
        <ele>442.82</ele>
        <time>2015-06-28T08:08:54Z</time>
      </trkpt>
      <trkpt lat="45.82872" lon="3.067">
        <ele>443.31</ele>
        <time>2015-06-28T08:09:32Z</time>
      </trkpt>
      <trkpt lat="45.82868" lon="3.06699">
        <ele>443.31</ele>
        <time>2015-06-28T08:10:11Z</time>
      </trkpt>
      <trkpt lat="45.82869" lon="3.06697">
        <ele>443.79</ele>
        <time>2015-06-28T08:10:46Z</time>
      </trkpt>
      <trkpt lat="45.82867" lon="3.06697">
        <ele>442.82</ele>
        <time>2015-06-28T08:11:12Z</time>
      </trkpt>
      <trkpt lat="45.82866" lon="3.06696">
        <ele>443.31</ele>
        <time>2015-06-28T08:11:13Z</time>
      </trkpt>
      <trkpt lat="45.82865" lon="3.06695">
        <ele>443.31</ele>
        <time>2015-06-28T08:11:14Z</time>
      </trkpt>
      <trkpt lat="45.82864" lon="3.06693">
        <ele>442.82</ele>
        <time>2015-06-28T08:11:15Z</time>
      </trkpt>
      <trkpt lat="45.82863" lon="3.06692">
        <ele>442.82</ele>
        <time>2015-06-28T08:11:16Z</time>
      </trkpt>
      <trkpt lat="45.82852" lon="3.06659">
        <ele>443.79</ele>
        <time>2015-06-28T08:11:31Z</time>
      </trkpt>
      <trkpt lat="45.82867" lon="3.06621">
        <ele>447.15</ele>
        <time>2015-06-28T08:11:47Z</time>
      </trkpt>
      <trkpt lat="45.8288" lon="3.06579">
        <ele>450.03</ele>
        <time>2015-06-28T08:12:05Z</time>
      </trkpt>
      <trkpt lat="45.82886" lon="3.06571">
        <ele>451.96</ele>
        <time>2015-06-28T08:12:10Z</time>
      </trkpt>
      <trkpt lat="45.82911" lon="3.06555">
        <ele>455.32</ele>
        <time>2015-06-28T08:12:27Z</time>
      </trkpt>
      <trkpt lat="45.82937" lon="3.06544">
        <ele>457.72</ele>
        <time>2015-06-28T08:12:44Z</time>
      </trkpt>
      <trkpt lat="45.82962" lon="3.06533">
        <ele>459.65</ele>
        <time>2015-06-28T08:13:02Z</time>
      </trkpt>
      <trkpt lat="45.8299" lon="3.06546">
        <ele>460.13</ele>
        <time>2015-06-28T08:13:19Z</time>
      </trkpt>
      <trkpt lat="45.83023" lon="3.06563">
        <ele>462.05</ele>
        <time>2015-06-28T08:13:36Z</time>
      </trkpt>
      <trkpt lat="45.83059" lon="3.06558">
        <ele>463.01</ele>
        <time>2015-06-28T08:13:53Z</time>
      </trkpt>
      <trkpt lat="45.8309" lon="3.06548">
        <ele>466.38</ele>
        <time>2015-06-28T08:14:08Z</time>
      </trkpt>
      <trkpt lat="45.83117" lon="3.0655">
        <ele>469.74</ele>
        <time>2015-06-28T08:14:24Z</time>
      </trkpt>
      <trkpt lat="45.83146" lon="3.06532">
        <ele>469.26</ele>
        <time>2015-06-28T08:14:40Z</time>
      </trkpt>
      <trkpt lat="45.83179" lon="3.06548">
        <ele>470.7</ele>
        <time>2015-06-28T08:14:57Z</time>
      </trkpt>
      <trkpt lat="45.83214" lon="3.06561">
        <ele>472.14</ele>
        <time>2015-06-28T08:15:16Z</time>
      </trkpt>
      <trkpt lat="45.83236" lon="3.06549">
        <ele>475.99</ele>
        <time>2015-06-28T08:15:27Z</time>
      </trkpt>
      <trkpt lat="45.83271" lon="3.06536">
        <ele>477.91</ele>
        <time>2015-06-28T08:15:46Z</time>
      </trkpt>
      <trkpt lat="45.83305" lon="3.06536">
        <ele>480.32</ele>
        <time>2015-06-28T08:16:06Z</time>
      </trkpt>
      <trkpt lat="45.83335" lon="3.06534">
        <ele>482.72</ele>
        <time>2015-06-28T08:16:24Z</time>
      </trkpt>
      <trkpt lat="45.83369" lon="3.06532">
        <ele>484.16</ele>
        <time>2015-06-28T08:16:42Z</time>
      </trkpt>
      <trkpt lat="45.83398" lon="3.06515">
        <ele>487.05</ele>
        <time>2015-06-28T08:16:59Z</time>
      </trkpt>
      <trkpt lat="45.83426" lon="3.06502">
        <ele>490.89</ele>
        <time>2015-06-28T08:17:13Z</time>
      </trkpt>
      <trkpt lat="45.83454" lon="3.06482">
        <ele>494.74</ele>
        <time>2015-06-28T08:17:27Z</time>
      </trkpt>
      <trkpt lat="45.83482" lon="3.06449">
        <ele>497.14</ele>
        <time>2015-06-28T08:17:41Z</time>
      </trkpt>
      <trkpt lat="45.83514" lon="3.06409">
        <ele>500.02</ele>
        <time>2015-06-28T08:17:54Z</time>
      </trkpt>
      <trkpt lat="45.83549" lon="3.06353">
        <ele>501.95</ele>
        <time>2015-06-28T08:18:08Z</time>
      </trkpt>
      <trkpt lat="45.8357" lon="3.06319">
        <ele>503.39</ele>
        <time>2015-06-28T08:18:26Z</time>
      </trkpt>
      <trkpt lat="45.83585" lon="3.06269">
        <ele>506.27</ele>
        <time>2015-06-28T08:18:42Z</time>
      </trkpt>
      <trkpt lat="45.83588" lon="3.06261">
        <ele>506.27</ele>
        <time>2015-06-28T08:18:54Z</time>
      </trkpt>
      <trkpt lat="45.83589" lon="3.06262">
        <ele>507.23</ele>
        <time>2015-06-28T08:19:10Z</time>
      </trkpt>
      <trkpt lat="45.83587" lon="3.06259">
        <ele>506.27</ele>
        <time>2015-06-28T08:19:38Z</time>
      </trkpt>
      <trkpt lat="45.83587" lon="3.06259">
        <ele>506.75</ele>
        <time>2015-06-28T08:19:59Z</time>
      </trkpt>
      <trkpt lat="45.83589" lon="3.06262">
        <ele>506.75</ele>
        <time>2015-06-28T08:20:25Z</time>
      </trkpt>
      <trkpt lat="45.83591" lon="3.06265">
        <ele>506.75</ele>
        <time>2015-06-28T08:20:44Z</time>
      </trkpt>
      <trkpt lat="45.83592" lon="3.06268">
        <ele>507.23</ele>
        <time>2015-06-28T08:20:47Z</time>
      </trkpt>
      <trkpt lat="45.83593" lon="3.0627">
        <ele>506.75</ele>
        <time>2015-06-28T08:20:48Z</time>
      </trkpt>
      <trkpt lat="45.83594" lon="3.06271">
        <ele>507.23</ele>
        <time>2015-06-28T08:20:49Z</time>
      </trkpt>
      <trkpt lat="45.83595" lon="3.06272">
        <ele>507.23</ele>
        <time>2015-06-28T08:20:50Z</time>
      </trkpt>
      <trkpt lat="45.83596" lon="3.06273">
        <ele>507.71</ele>
        <time>2015-06-28T08:20:51Z</time>
      </trkpt>
      <trkpt lat="45.83631" lon="3.06293">
        <ele>507.71</ele>
        <time>2015-06-28T08:21:07Z</time>
      </trkpt>
      <trkpt lat="45.83668" lon="3.06332">
        <ele>507.71</ele>
        <time>2015-06-28T08:21:21Z</time>
      </trkpt>
      <trkpt lat="45.83657" lon="3.06364">
        <ele>508.19</ele>
        <time>2015-06-28T08:21:32Z</time>
      </trkpt>
      <trkpt lat="45.83643" lon="3.06419">
        <ele>505.79</ele>
        <time>2015-06-28T08:21:44Z</time>
      </trkpt>
      <trkpt lat="45.83629" lon="3.06481">
        <ele>503.39</ele>
        <time>2015-06-28T08:21:56Z</time>
      </trkpt>
      <trkpt lat="45.83621" lon="3.06536">
        <ele>503.87</ele>
        <time>2015-06-28T08:22:09Z</time>
      </trkpt>
      <trkpt lat="45.83641" lon="3.06556">
        <ele>505.31</ele>
        <time>2015-06-28T08:22:16Z</time>
      </trkpt>
      <trkpt lat="45.8369" lon="3.06608">
        <ele>504.83</ele>
        <time>2015-06-28T08:22:32Z</time>
      </trkpt>
      <trkpt lat="45.83736" lon="3.06629">
        <ele>507.23</ele>
        <time>2015-06-28T08:22:48Z</time>
      </trkpt>
      <trkpt lat="45.83767" lon="3.06623">
        <ele>507.71</ele>
        <time>2015-06-28T08:22:58Z</time>
      </trkpt>
      <trkpt lat="45.83839" lon="3.0663">
        <ele>509.16</ele>
        <time>2015-06-28T08:23:11Z</time>
      </trkpt>
      <trkpt lat="45.83901" lon="3.06627">
        <ele>510.12</ele>
        <time>2015-06-28T08:23:21Z</time>
      </trkpt>
      <trkpt lat="45.83925" lon="3.06632">
        <ele>510.6</ele>
        <time>2015-06-28T08:23:25Z</time>
      </trkpt>
      <trkpt lat="45.83955" lon="3.06645">
        <ele>511.08</ele>
        <time>2015-06-28T08:23:34Z</time>
      </trkpt>
      <trkpt lat="45.83953" lon="3.06646">
        <ele>510.12</ele>
        <time>2015-06-28T08:23:53Z</time>
      </trkpt>
      <trkpt lat="45.83963" lon="3.06609">
        <ele>510.6</ele>
        <time>2015-06-28T08:24:06Z</time>
      </trkpt>
      <trkpt lat="45.83974" lon="3.0653">
        <ele>511.08</ele>
        <time>2015-06-28T08:24:23Z</time>
      </trkpt>
      <trkpt lat="45.83985" lon="3.06463">
        <ele>514.44</ele>
        <time>2015-06-28T08:24:37Z</time>
      </trkpt>
      <trkpt lat="45.83994" lon="3.06434">
        <ele>517.81</ele>
        <time>2015-06-28T08:24:45Z</time>
      </trkpt>
      <trkpt lat="45.83995" lon="3.06431">
        <ele>517.81</ele>
        <time>2015-06-28T08:24:46Z</time>
      </trkpt>
      <trkpt lat="45.8401" lon="3.0638">
        <ele>520.21</ele>
        <time>2015-06-28T08:25:05Z</time>
      </trkpt>
      <trkpt lat="45.84023" lon="3.06331">
        <ele>521.17</ele>
        <time>2015-06-28T08:25:22Z</time>
      </trkpt>
      <trkpt lat="45.84028" lon="3.06285">
        <ele>521.17</ele>
        <time>2015-06-28T08:25:38Z</time>
      </trkpt>
      <trkpt lat="45.84036" lon="3.06237">
        <ele>521.17</ele>
        <time>2015-06-28T08:25:51Z</time>
      </trkpt>
      <trkpt lat="45.84055" lon="3.06176">
        <ele>521.65</ele>
        <time>2015-06-28T08:26:08Z</time>
      </trkpt>
      <trkpt lat="45.84077" lon="3.06106">
        <ele>522.13</ele>
        <time>2015-06-28T08:26:27Z</time>
      </trkpt>
      <trkpt lat="45.84071" lon="3.06052">
        <ele>523.58</ele>
        <time>2015-06-28T08:26:41Z</time>
      </trkpt>
      <trkpt lat="45.84069" lon="3.0599">
        <ele>524.06</ele>
        <time>2015-06-28T08:26:56Z</time>
      </trkpt>
      <trkpt lat="45.84069" lon="3.05918">
        <ele>525.5</ele>
        <time>2015-06-28T08:27:13Z</time>
      </trkpt>
      <trkpt lat="45.84089" lon="3.05882">
        <ele>525.98</ele>
        <time>2015-06-28T08:27:25Z</time>
      </trkpt>
      <trkpt lat="45.84136" lon="3.05844">
        <ele>528.38</ele>
        <time>2015-06-28T08:27:43Z</time>
      </trkpt>
      <trkpt lat="45.84184" lon="3.05798">
        <ele>529.82</ele>
        <time>2015-06-28T08:28:00Z</time>
      </trkpt>
      <trkpt lat="45.84228" lon="3.05757">
        <ele>530.79</ele>
        <time>2015-06-28T08:28:16Z</time>
      </trkpt>
      <trkpt lat="45.84274" lon="3.05713">
        <ele>529.82</ele>
        <time>2015-06-28T08:28:32Z</time>
      </trkpt>
      <trkpt lat="45.84303" lon="3.05684">
        <ele>529.34</ele>
        <time>2015-06-28T08:28:45Z</time>
      </trkpt>
      <trkpt lat="45.8435" lon="3.05634">
        <ele>531.27</ele>
        <time>2015-06-28T08:29:07Z</time>
      </trkpt>
      <trkpt lat="45.84374" lon="3.0561">
        <ele>531.75</ele>
        <time>2015-06-28T08:29:20Z</time>
      </trkpt>
      <trkpt lat="45.84374" lon="3.05608">
        <ele>531.27</ele>
        <time>2015-06-28T08:29:21Z</time>
      </trkpt>
      <trkpt lat="45.84373" lon="3.05605">
        <ele>531.27</ele>
        <time>2015-06-28T08:29:22Z</time>
      </trkpt>
      <trkpt lat="45.84372" lon="3.05602">
        <ele>531.27</ele>
        <time>2015-06-28T08:29:23Z</time>
      </trkpt>
      <trkpt lat="45.84371" lon="3.05598">
        <ele>531.75</ele>
        <time>2015-06-28T08:29:24Z</time>
      </trkpt>
      <trkpt lat="45.84365" lon="3.05536">
        <ele>532.23</ele>
        <time>2015-06-28T08:29:39Z</time>
      </trkpt>
      <trkpt lat="45.84359" lon="3.05471">
        <ele>532.71</ele>
        <time>2015-06-28T08:29:55Z</time>
      </trkpt>
      <trkpt lat="45.84357" lon="3.05402">
        <ele>533.19</ele>
        <time>2015-06-28T08:30:11Z</time>
      </trkpt>
      <trkpt lat="45.84344" lon="3.05329">
        <ele>534.15</ele>
        <time>2015-06-28T08:30:30Z</time>
      </trkpt>
      <trkpt lat="45.84332" lon="3.05277">
        <ele>535.59</ele>
        <time>2015-06-28T08:30:45Z</time>
      </trkpt>
      <trkpt lat="45.84318" lon="3.05208">
        <ele>537.03</ele>
        <time>2015-06-28T08:31:04Z</time>
      </trkpt>
      <trkpt lat="45.84302" lon="3.05187">
        <ele>538.96</ele>
        <time>2015-06-28T08:31:18Z</time>
      </trkpt>
      <trkpt lat="45.84258" lon="3.05173">
        <ele>538.96</ele>
        <time>2015-06-28T08:31:36Z</time>
      </trkpt>
      <trkpt lat="45.84196" lon="3.05174">
        <ele>539.44</ele>
        <time>2015-06-28T08:31:56Z</time>
      </trkpt>
      <trkpt lat="45.84133" lon="3.05194">
        <ele>539.92</ele>
        <time>2015-06-28T08:32:16Z</time>
      </trkpt>
      <trkpt lat="45.84088" lon="3.05203">
        <ele>539.44</ele>
        <time>2015-06-28T08:32:32Z</time>
      </trkpt>
      <trkpt lat="45.84085" lon="3.05158">
        <ele>540.4</ele>
        <time>2015-06-28T08:32:45Z</time>
      </trkpt>
      <trkpt lat="45.84091" lon="3.05096">
        <ele>541.84</ele>
        <time>2015-06-28T08:33:01Z</time>
      </trkpt>
      <trkpt lat="45.84103" lon="3.05009">
        <ele>543.28</ele>
        <time>2015-06-28T08:33:22Z</time>
      </trkpt>
      <trkpt lat="45.841" lon="3.04933">
        <ele>544.72</ele>
        <time>2015-06-28T08:33:42Z</time>
      </trkpt>
      <trkpt lat="45.84094" lon="3.04874">
        <ele>545.69</ele>
        <time>2015-06-28T08:33:59Z</time>
      </trkpt>
      <trkpt lat="45.84085" lon="3.04814">
        <ele>546.65</ele>
        <time>2015-06-28T08:34:16Z</time>
      </trkpt>
      <trkpt lat="45.84082" lon="3.04746">
        <ele>548.09</ele>
        <time>2015-06-28T08:34:35Z</time>
      </trkpt>
      <trkpt lat="45.8408" lon="3.04733">
        <ele>548.57</ele>
        <time>2015-06-28T08:34:45Z</time>
      </trkpt>
      <trkpt lat="45.84081" lon="3.04731">
        <ele>547.61</ele>
        <time>2015-06-28T08:34:46Z</time>
      </trkpt>
      <trkpt lat="45.84082" lon="3.04729">
        <ele>548.57</ele>
        <time>2015-06-28T08:34:47Z</time>
      </trkpt>
      <trkpt lat="45.84084" lon="3.04728">
        <ele>548.57</ele>
        <time>2015-06-28T08:34:48Z</time>
      </trkpt>
      <trkpt lat="45.84086" lon="3.04727">
        <ele>548.09</ele>
        <time>2015-06-28T08:34:49Z</time>
      </trkpt>
      <trkpt lat="45.84089" lon="3.04726">
        <ele>548.57</ele>
        <time>2015-06-28T08:34:50Z</time>
      </trkpt>
      <trkpt lat="45.84114" lon="3.04707">
        <ele>550.01</ele>
        <time>2015-06-28T08:35:01Z</time>
      </trkpt>
      <trkpt lat="45.84156" lon="3.04681">
        <ele>550.01</ele>
        <time>2015-06-28T08:35:17Z</time>
      </trkpt>
      <trkpt lat="45.84164" lon="3.04657">
        <ele>550.49</ele>
        <time>2015-06-28T08:35:28Z</time>
      </trkpt>
      <trkpt lat="45.84163" lon="3.04655">
        <ele>550.49</ele>
        <time>2015-06-28T08:35:29Z</time>
      </trkpt>
      <trkpt lat="45.84162" lon="3.04652">
        <ele>550.49</ele>
        <time>2015-06-28T08:35:30Z</time>
      </trkpt>
      <trkpt lat="45.84161" lon="3.04649">
        <ele>550.97</ele>
        <time>2015-06-28T08:35:31Z</time>
      </trkpt>
      <trkpt lat="45.8416" lon="3.04646">
        <ele>550.49</ele>
        <time>2015-06-28T08:35:32Z</time>
      </trkpt>
      <trkpt lat="45.84153" lon="3.04606">
        <ele>552.41</ele>
        <time>2015-06-28T08:35:44Z</time>
      </trkpt>
      <trkpt lat="45.84147" lon="3.04543">
        <ele>554.82</ele>
        <time>2015-06-28T08:36:03Z</time>
      </trkpt>
      <trkpt lat="45.84161" lon="3.04489">
        <ele>556.26</ele>
        <time>2015-06-28T08:36:20Z</time>
      </trkpt>
      <trkpt lat="45.84176" lon="3.04419">
        <ele>556.74</ele>
        <time>2015-06-28T08:36:41Z</time>
      </trkpt>
      <trkpt lat="45.84174" lon="3.04371">
        <ele>559.62</ele>
        <time>2015-06-28T08:36:56Z</time>
      </trkpt>
      <trkpt lat="45.8417" lon="3.04348">
        <ele>561.07</ele>
        <time>2015-06-28T08:37:04Z</time>
      </trkpt>
      <trkpt lat="45.84156" lon="3.04317">
        <ele>563.47</ele>
        <time>2015-06-28T08:37:20Z</time>
      </trkpt>
      <trkpt lat="45.84129" lon="3.04291">
        <ele>566.35</ele>
        <time>2015-06-28T08:37:38Z</time>
      </trkpt>
      <trkpt lat="45.84102" lon="3.04287">
        <ele>569.24</ele>
        <time>2015-06-28T08:37:53Z</time>
      </trkpt>
      <trkpt lat="45.84071" lon="3.04289">
        <ele>572.12</ele>
        <time>2015-06-28T08:38:09Z</time>
      </trkpt>
      <trkpt lat="45.84051" lon="3.0428">
        <ele>574.04</ele>
        <time>2015-06-28T08:38:21Z</time>
      </trkpt>
      <trkpt lat="45.8405" lon="3.04277">
        <ele>574.04</ele>
        <time>2015-06-28T08:38:22Z</time>
      </trkpt>
      <trkpt lat="45.8405" lon="3.04274">
        <ele>574.04</ele>
        <time>2015-06-28T08:38:23Z</time>
      </trkpt>
      <trkpt lat="45.84051" lon="3.04271">
        <ele>574.04</ele>
        <time>2015-06-28T08:38:24Z</time>
      </trkpt>
      <trkpt lat="45.84052" lon="3.04268">
        <ele>575.01</ele>
        <time>2015-06-28T08:38:25Z</time>
      </trkpt>
      <trkpt lat="45.84054" lon="3.04266">
        <ele>574.53</ele>
        <time>2015-06-28T08:38:26Z</time>
      </trkpt>
      <trkpt lat="45.84072" lon="3.0422">
        <ele>577.41</ele>
        <time>2015-06-28T08:38:45Z</time>
      </trkpt>
      <trkpt lat="45.84068" lon="3.04178">
        <ele>579.81</ele>
        <time>2015-06-28T08:39:04Z</time>
      </trkpt>
      <trkpt lat="45.84046" lon="3.04147">
        <ele>580.77</ele>
        <time>2015-06-28T08:39:23Z</time>
      </trkpt>
      <trkpt lat="45.84032" lon="3.04093">
        <ele>581.73</ele>
        <time>2015-06-28T08:39:41Z</time>
      </trkpt>
      <trkpt lat="45.84016" lon="3.04037">
        <ele>582.7</ele>
        <time>2015-06-28T08:39:59Z</time>
      </trkpt>
      <trkpt lat="45.84008" lon="3.03972">
        <ele>584.62</ele>
        <time>2015-06-28T08:40:20Z</time>
      </trkpt>
      <trkpt lat="45.84002" lon="3.0393">
        <ele>587.5</ele>
        <time>2015-06-28T08:40:34Z</time>
      </trkpt>
      <trkpt lat="45.83996" lon="3.03923">
        <ele>588.46</ele>
        <time>2015-06-28T08:40:38Z</time>
      </trkpt>
      <trkpt lat="45.83975" lon="3.03902">
        <ele>591.83</ele>
        <time>2015-06-28T08:40:52Z</time>
      </trkpt>
      <trkpt lat="45.83973" lon="3.03861">
        <ele>593.75</ele>
        <time>2015-06-28T08:41:08Z</time>
      </trkpt>
      <trkpt lat="45.83977" lon="3.03821">
        <ele>596.15</ele>
        <time>2015-06-28T08:41:24Z</time>
      </trkpt>
      <trkpt lat="45.83985" lon="3.03781">
        <ele>597.6</ele>
        <time>2015-06-28T08:41:41Z</time>
      </trkpt>
      <trkpt lat="45.83987" lon="3.03775">
        <ele>598.08</ele>
        <time>2015-06-28T08:41:44Z</time>
      </trkpt>
      <trkpt lat="45.83997" lon="3.03743">
        <ele>600</ele>
        <time>2015-06-28T08:41:59Z</time>
      </trkpt>
      <trkpt lat="45.84014" lon="3.03712">
        <ele>600.48</ele>
        <time>2015-06-28T08:42:13Z</time>
      </trkpt>
      <trkpt lat="45.8403" lon="3.03682">
        <ele>602.88</ele>
        <time>2015-06-28T08:42:28Z</time>
      </trkpt>
      <trkpt lat="45.84041" lon="3.03647">
        <ele>605.29</ele>
        <time>2015-06-28T08:42:40Z</time>
      </trkpt>
      <trkpt lat="45.84058" lon="3.03607">
        <ele>608.65</ele>
        <time>2015-06-28T08:42:55Z</time>
      </trkpt>
      <trkpt lat="45.84068" lon="3.03565">
        <ele>611.54</ele>
        <time>2015-06-28T08:43:12Z</time>
      </trkpt>
      <trkpt lat="45.84081" lon="3.03532">
        <ele>613.46</ele>
        <time>2015-06-28T08:43:27Z</time>
      </trkpt>
      <trkpt lat="45.84097" lon="3.03508">
        <ele>614.9</ele>
        <time>2015-06-28T08:43:42Z</time>
      </trkpt>
      <trkpt lat="45.84105" lon="3.03469">
        <ele>615.38</ele>
        <time>2015-06-28T08:44:00Z</time>
      </trkpt>
      <trkpt lat="45.84104" lon="3.03452">
        <ele>615.86</ele>
        <time>2015-06-28T08:44:14Z</time>
      </trkpt>
      <trkpt lat="45.84106" lon="3.03445">
        <ele>617.3</ele>
        <time>2015-06-28T08:44:29Z</time>
      </trkpt>
      <trkpt lat="45.84106" lon="3.03439">
        <ele>617.78</ele>
        <time>2015-06-28T08:44:48Z</time>
      </trkpt>
      <trkpt lat="45.84106" lon="3.03437">
        <ele>617.78</ele>
        <time>2015-06-28T08:44:49Z</time>
      </trkpt>
      <trkpt lat="45.84107" lon="3.03435">
        <ele>617.78</ele>
        <time>2015-06-28T08:44:50Z</time>
      </trkpt>
      <trkpt lat="45.84108" lon="3.03432">
        <ele>617.78</ele>
        <time>2015-06-28T08:44:51Z</time>
      </trkpt>
      <trkpt lat="45.84108" lon="3.0343">
        <ele>617.78</ele>
        <time>2015-06-28T08:44:52Z</time>
      </trkpt>
      <trkpt lat="45.84108" lon="3.03427">
        <ele>618.26</ele>
        <time>2015-06-28T08:44:53Z</time>
      </trkpt>
      <trkpt lat="45.84107" lon="3.03425">
        <ele>618.75</ele>
        <time>2015-06-28T08:44:54Z</time>
      </trkpt>
      <trkpt lat="45.84107" lon="3.03384">
        <ele>620.67</ele>
        <time>2015-06-28T08:45:08Z</time>
      </trkpt>
      <trkpt lat="45.84119" lon="3.03328">
        <ele>623.55</ele>
        <time>2015-06-28T08:45:26Z</time>
      </trkpt>
      <trkpt lat="45.84133" lon="3.03293">
        <ele>625.47</ele>
        <time>2015-06-28T08:45:41Z</time>
      </trkpt>
      <trkpt lat="45.84144" lon="3.03258">
        <ele>627.88</ele>
        <time>2015-06-28T08:45:57Z</time>
      </trkpt>
      <trkpt lat="45.84152" lon="3.03231">
        <ele>629.8</ele>
        <time>2015-06-28T08:46:12Z</time>
      </trkpt>
      <trkpt lat="45.84154" lon="3.03201">
        <ele>632.68</ele>
        <time>2015-06-28T08:46:24Z</time>
      </trkpt>
      <trkpt lat="45.84151" lon="3.03161">
        <ele>633.65</ele>
        <time>2015-06-28T08:46:42Z</time>
      </trkpt>
      <trkpt lat="45.84156" lon="3.03117">
        <ele>633.65</ele>
        <time>2015-06-28T08:46:56Z</time>
      </trkpt>
      <trkpt lat="45.84161" lon="3.03072">
        <ele>634.13</ele>
        <time>2015-06-28T08:47:10Z</time>
      </trkpt>
      <trkpt lat="45.84169" lon="3.03008">
        <ele>634.61</ele>
        <time>2015-06-28T08:47:28Z</time>
      </trkpt>
      <trkpt lat="45.84173" lon="3.02946">
        <ele>635.57</ele>
        <time>2015-06-28T08:47:44Z</time>
      </trkpt>
      <trkpt lat="45.84177" lon="3.02893">
        <ele>637.01</ele>
        <time>2015-06-28T08:47:58Z</time>
      </trkpt>
      <trkpt lat="45.84192" lon="3.02834">
        <ele>637.97</ele>
        <time>2015-06-28T08:48:14Z</time>
      </trkpt>
      <trkpt lat="45.84202" lon="3.02761">
        <ele>639.89</ele>
        <time>2015-06-28T08:48:34Z</time>
      </trkpt>
      <trkpt lat="45.84212" lon="3.02701">
        <ele>641.34</ele>
        <time>2015-06-28T08:48:51Z</time>
      </trkpt>
      <trkpt lat="45.84224" lon="3.02648">
        <ele>642.78</ele>
        <time>2015-06-28T08:49:07Z</time>
      </trkpt>
      <trkpt lat="45.84243" lon="3.026">
        <ele>644.22</ele>
        <time>2015-06-28T08:49:23Z</time>
      </trkpt>
      <trkpt lat="45.84259" lon="3.0255">
        <ele>645.18</ele>
        <time>2015-06-28T08:49:38Z</time>
      </trkpt>
      <trkpt lat="45.8427" lon="3.02514">
        <ele>647.1</ele>
        <time>2015-06-28T08:49:52Z</time>
      </trkpt>
      <trkpt lat="45.84271" lon="3.02515">
        <ele>646.14</ele>
        <time>2015-06-28T08:50:13Z</time>
      </trkpt>
      <trkpt lat="45.84271" lon="3.02513">
        <ele>646.14</ele>
        <time>2015-06-28T08:50:42Z</time>
      </trkpt>
      <trkpt lat="45.84274" lon="3.02511">
        <ele>646.14</ele>
        <time>2015-06-28T08:51:19Z</time>
      </trkpt>
      <trkpt lat="45.84273" lon="3.02513">
        <ele>646.14</ele>
        <time>2015-06-28T08:51:45Z</time>
      </trkpt>
      <trkpt lat="45.84274" lon="3.02519">
        <ele>646.14</ele>
        <time>2015-06-28T08:52:20Z</time>
      </trkpt>
      <trkpt lat="45.8427" lon="3.02515">
        <ele>646.62</ele>
        <time>2015-06-28T08:52:44Z</time>
      </trkpt>
      <trkpt lat="45.84269" lon="3.02517">
        <ele>646.62</ele>
        <time>2015-06-28T08:53:15Z</time>
      </trkpt>
      <trkpt lat="45.8427" lon="3.02514">
        <ele>646.62</ele>
        <time>2015-06-28T08:53:42Z</time>
      </trkpt>
      <trkpt lat="45.84266" lon="3.02511">
        <ele>647.59</ele>
        <time>2015-06-28T08:54:17Z</time>
      </trkpt>
      <trkpt lat="45.84245" lon="3.02486">
        <ele>648.55</ele>
        <time>2015-06-28T08:54:30Z</time>
      </trkpt>
      <trkpt lat="45.84217" lon="3.02443">
        <ele>649.03</ele>
        <time>2015-06-28T08:54:47Z</time>
      </trkpt>
      <trkpt lat="45.84181" lon="3.02425">
        <ele>649.99</ele>
        <time>2015-06-28T08:55:05Z</time>
      </trkpt>
      <trkpt lat="45.84153" lon="3.02396">
        <ele>651.91</ele>
        <time>2015-06-28T08:55:22Z</time>
      </trkpt>
      <trkpt lat="45.84117" lon="3.02363">
        <ele>653.83</ele>
        <time>2015-06-28T08:55:42Z</time>
      </trkpt>
      <trkpt lat="45.84086" lon="3.02326">
        <ele>655.76</ele>
        <time>2015-06-28T08:56:02Z</time>
      </trkpt>
      <trkpt lat="45.84068" lon="3.0232">
        <ele>657.68</ele>
        <time>2015-06-28T08:56:13Z</time>
      </trkpt>
      <trkpt lat="45.84067" lon="3.02323">
        <ele>658.16</ele>
        <time>2015-06-28T08:56:14Z</time>
      </trkpt>
      <trkpt lat="45.84066" lon="3.02326">
        <ele>658.64</ele>
        <time>2015-06-28T08:56:15Z</time>
      </trkpt>
      <trkpt lat="45.84066" lon="3.0233">
        <ele>658.64</ele>
        <time>2015-06-28T08:56:16Z</time>
      </trkpt>
      <trkpt lat="45.84066" lon="3.02335">
        <ele>658.16</ele>
        <time>2015-06-28T08:56:17Z</time>
      </trkpt>
      <trkpt lat="45.84065" lon="3.02339">
        <ele>658.16</ele>
        <time>2015-06-28T08:56:18Z</time>
      </trkpt>
      <trkpt lat="45.84065" lon="3.02342">
        <ele>658.16</ele>
        <time>2015-06-28T08:56:19Z</time>
      </trkpt>
      <trkpt lat="45.84067" lon="3.02362">
        <ele>657.2</ele>
        <time>2015-06-28T08:56:23Z</time>
      </trkpt>
      <trkpt lat="45.84072" lon="3.02367">
        <ele>656.24</ele>
        <time>2015-06-28T08:56:24Z</time>
      </trkpt>
      <trkpt lat="45.84075" lon="3.02373">
        <ele>657.2</ele>
        <time>2015-06-28T08:56:25Z</time>
      </trkpt>
      <trkpt lat="45.84117" lon="3.02471">
        <ele>653.35</ele>
        <time>2015-06-28T08:56:37Z</time>
      </trkpt>
      <trkpt lat="45.84131" lon="3.025">
        <ele>652.39</ele>
        <time>2015-06-28T08:56:41Z</time>
      </trkpt>
      <trkpt lat="45.84162" lon="3.02599">
        <ele>648.55</ele>
        <time>2015-06-28T08:56:53Z</time>
      </trkpt>
      <trkpt lat="45.84164" lon="3.02609">
        <ele>649.03</ele>
        <time>2015-06-28T08:56:54Z</time>
      </trkpt>
      <trkpt lat="45.84173" lon="3.02733">
        <ele>645.18</ele>
        <time>2015-06-28T08:57:04Z</time>
      </trkpt>
      <trkpt lat="45.84173" lon="3.02795">
        <ele>641.82</ele>
        <time>2015-06-28T08:57:09Z</time>
      </trkpt>
      <trkpt lat="45.84171" lon="3.02805">
        <ele>642.3</ele>
        <time>2015-06-28T08:57:10Z</time>
      </trkpt>
      <trkpt lat="45.84168" lon="3.02813">
        <ele>641.34</ele>
        <time>2015-06-28T08:57:11Z</time>
      </trkpt>
      <trkpt lat="45.84162" lon="3.02821">
        <ele>640.86</ele>
        <time>2015-06-28T08:57:12Z</time>
      </trkpt>
      <trkpt lat="45.84156" lon="3.02827">
        <ele>640.86</ele>
        <time>2015-06-28T08:57:13Z</time>
      </trkpt>
      <trkpt lat="45.84144" lon="3.02835">
        <ele>639.89</ele>
        <time>2015-06-28T08:57:14Z</time>
      </trkpt>
      <trkpt lat="45.84133" lon="3.02841">
        <ele>639.89</ele>
        <time>2015-06-28T08:57:15Z</time>
      </trkpt>
      <trkpt lat="45.84051" lon="3.02939">
        <ele>636.05</ele>
        <time>2015-06-28T08:57:27Z</time>
      </trkpt>
      <trkpt lat="45.84033" lon="3.02981">
        <ele>634.61</ele>
        <time>2015-06-28T08:57:31Z</time>
      </trkpt>
      <trkpt lat="45.84021" lon="3.03022">
        <ele>632.68</ele>
        <time>2015-06-28T08:57:35Z</time>
      </trkpt>
      <trkpt lat="45.84011" lon="3.03164">
        <ele>629.8</ele>
        <time>2015-06-28T08:57:46Z</time>
      </trkpt>
      <trkpt lat="45.8401" lon="3.03206">
        <ele>627.88</ele>
        <time>2015-06-28T08:57:49Z</time>
      </trkpt>
      <trkpt lat="45.84008" lon="3.0332">
        <ele>625.47</ele>
        <time>2015-06-28T08:57:57Z</time>
      </trkpt>
      <trkpt lat="45.84008" lon="3.03363">
        <ele>623.07</ele>
        <time>2015-06-28T08:58:00Z</time>
      </trkpt>
      <trkpt lat="45.84008" lon="3.03462">
        <ele>619.71</ele>
        <time>2015-06-28T08:58:07Z</time>
      </trkpt>
      <trkpt lat="45.84007" lon="3.03476">
        <ele>619.71</ele>
        <time>2015-06-28T08:58:08Z</time>
      </trkpt>
      <trkpt lat="45.83999" lon="3.03576">
        <ele>616.34</ele>
        <time>2015-06-28T08:58:15Z</time>
      </trkpt>
      <trkpt lat="45.83991" lon="3.03605">
        <ele>614.9</ele>
        <time>2015-06-28T08:58:17Z</time>
      </trkpt>
      <trkpt lat="45.83986" lon="3.03619">
        <ele>613.94</ele>
        <time>2015-06-28T08:58:18Z</time>
      </trkpt>
      <trkpt lat="45.83979" lon="3.03633">
        <ele>614.42</ele>
        <time>2015-06-28T08:58:19Z</time>
      </trkpt>
      <trkpt lat="45.8393" lon="3.03719">
        <ele>610.57</ele>
        <time>2015-06-28T08:58:25Z</time>
      </trkpt>
      <trkpt lat="45.83898" lon="3.03758">
        <ele>608.17</ele>
        <time>2015-06-28T08:58:28Z</time>
      </trkpt>
      <trkpt lat="45.83845" lon="3.03812">
        <ele>604.81</ele>
        <time>2015-06-28T08:58:33Z</time>
      </trkpt>
      <trkpt lat="45.83826" lon="3.03833">
        <ele>603.85</ele>
        <time>2015-06-28T08:58:35Z</time>
      </trkpt>
      <trkpt lat="45.83781" lon="3.03886">
        <ele>600.96</ele>
        <time>2015-06-28T08:58:40Z</time>
      </trkpt>
      <trkpt lat="45.83756" lon="3.03923">
        <ele>599.52</ele>
        <time>2015-06-28T08:58:43Z</time>
      </trkpt>
      <trkpt lat="45.83735" lon="3.0396">
        <ele>598.56</ele>
        <time>2015-06-28T08:58:46Z</time>
      </trkpt>
      <trkpt lat="45.83736" lon="3.03981">
        <ele>598.56</ele>
        <time>2015-06-28T08:58:47Z</time>
      </trkpt>
      <trkpt lat="45.83738" lon="3.04">
        <ele>597.6</ele>
        <time>2015-06-28T08:58:48Z</time>
      </trkpt>
      <trkpt lat="45.83742" lon="3.04017">
        <ele>596.15</ele>
        <time>2015-06-28T08:58:49Z</time>
      </trkpt>
      <trkpt lat="45.83746" lon="3.04033">
        <ele>595.67</ele>
        <time>2015-06-28T08:58:50Z</time>
      </trkpt>
      <trkpt lat="45.8376" lon="3.0408">
        <ele>592.31</ele>
        <time>2015-06-28T08:58:53Z</time>
      </trkpt>
      <trkpt lat="45.8377" lon="3.04113">
        <ele>591.83</ele>
        <time>2015-06-28T08:58:55Z</time>
      </trkpt>
      <trkpt lat="45.83795" lon="3.04227">
        <ele>587.5</ele>
        <time>2015-06-28T08:59:02Z</time>
      </trkpt>
      <trkpt lat="45.83797" lon="3.04244">
        <ele>587.98</ele>
        <time>2015-06-28T08:59:03Z</time>
      </trkpt>
      <trkpt lat="45.83797" lon="3.04259">
        <ele>587.02</ele>
        <time>2015-06-28T08:59:04Z</time>
      </trkpt>
      <trkpt lat="45.83796" lon="3.04274">
        <ele>586.06</ele>
        <time>2015-06-28T08:59:05Z</time>
      </trkpt>
      <trkpt lat="45.83789" lon="3.04302">
        <ele>585.1</ele>
        <time>2015-06-28T08:59:07Z</time>
      </trkpt>
      <trkpt lat="45.83782" lon="3.04312">
        <ele>583.66</ele>
        <time>2015-06-28T08:59:08Z</time>
      </trkpt>
      <trkpt lat="45.83772" lon="3.04322">
        <ele>583.18</ele>
        <time>2015-06-28T08:59:09Z</time>
      </trkpt>
      <trkpt lat="45.8376" lon="3.04331">
        <ele>583.18</ele>
        <time>2015-06-28T08:59:10Z</time>
      </trkpt>
      <trkpt lat="45.83747" lon="3.04339">
        <ele>582.7</ele>
        <time>2015-06-28T08:59:11Z</time>
      </trkpt>
      <trkpt lat="45.83733" lon="3.04346">
        <ele>581.73</ele>
        <time>2015-06-28T08:59:12Z</time>
      </trkpt>
      <trkpt lat="45.83719" lon="3.0435">
        <ele>581.73</ele>
        <time>2015-06-28T08:59:13Z</time>
      </trkpt>
      <trkpt lat="45.83706" lon="3.04349">
        <ele>581.25</ele>
        <time>2015-06-28T08:59:14Z</time>
      </trkpt>
      <trkpt lat="45.83696" lon="3.04342">
        <ele>580.77</ele>
        <time>2015-06-28T08:59:15Z</time>
      </trkpt>
      <trkpt lat="45.83688" lon="3.0433">
        <ele>579.33</ele>
        <time>2015-06-28T08:59:16Z</time>
      </trkpt>
      <trkpt lat="45.83683" lon="3.04316">
        <ele>578.85</ele>
        <time>2015-06-28T08:59:17Z</time>
      </trkpt>
      <trkpt lat="45.83678" lon="3.04302">
        <ele>578.85</ele>
        <time>2015-06-28T08:59:18Z</time>
      </trkpt>
      <trkpt lat="45.83651" lon="3.04213">
        <ele>575.49</ele>
        <time>2015-06-28T08:59:24Z</time>
      </trkpt>
      <trkpt lat="45.83648" lon="3.04197">
        <ele>575.01</ele>
        <time>2015-06-28T08:59:25Z</time>
      </trkpt>
      <trkpt lat="45.83647" lon="3.04181">
        <ele>574.04</ele>
        <time>2015-06-28T08:59:26Z</time>
      </trkpt>
      <trkpt lat="45.83646" lon="3.04164">
        <ele>573.56</ele>
        <time>2015-06-28T08:59:27Z</time>
      </trkpt>
      <trkpt lat="45.83646" lon="3.04148">
        <ele>573.08</ele>
        <time>2015-06-28T08:59:28Z</time>
      </trkpt>
      <trkpt lat="45.83644" lon="3.04132">
        <ele>572.6</ele>
        <time>2015-06-28T08:59:29Z</time>
      </trkpt>
      <trkpt lat="45.8364" lon="3.04118">
        <ele>572.6</ele>
        <time>2015-06-28T08:59:30Z</time>
      </trkpt>
      <trkpt lat="45.83633" lon="3.04106">
        <ele>572.6</ele>
        <time>2015-06-28T08:59:31Z</time>
      </trkpt>
      <trkpt lat="45.83625" lon="3.04095">
        <ele>571.64</ele>
        <time>2015-06-28T08:59:32Z</time>
      </trkpt>
      <trkpt lat="45.83582" lon="3.04047">
        <ele>568.76</ele>
        <time>2015-06-28T08:59:37Z</time>
      </trkpt>
      <trkpt lat="45.83556" lon="3.04017">
        <ele>567.32</ele>
        <time>2015-06-28T08:59:40Z</time>
      </trkpt>
      <trkpt lat="45.83549" lon="3.04007">
        <ele>566.83</ele>
        <time>2015-06-28T08:59:41Z</time>
      </trkpt>
      <trkpt lat="45.83543" lon="3.03993">
        <ele>565.87</ele>
        <time>2015-06-28T08:59:42Z</time>
      </trkpt>
      <trkpt lat="45.83538" lon="3.03979">
        <ele>565.87</ele>
        <time>2015-06-28T08:59:43Z</time>
      </trkpt>
      <trkpt lat="45.83536" lon="3.03963">
        <ele>564.91</ele>
        <time>2015-06-28T08:59:44Z</time>
      </trkpt>
      <trkpt lat="45.83535" lon="3.03946">
        <ele>563.47</ele>
        <time>2015-06-28T08:59:45Z</time>
      </trkpt>
      <trkpt lat="45.83536" lon="3.03929">
        <ele>563.47</ele>
        <time>2015-06-28T08:59:46Z</time>
      </trkpt>
      <trkpt lat="45.83541" lon="3.03864">
        <ele>562.99</ele>
        <time>2015-06-28T08:59:50Z</time>
      </trkpt>
      <trkpt lat="45.83539" lon="3.03849">
        <ele>562.99</ele>
        <time>2015-06-28T08:59:51Z</time>
      </trkpt>
      <trkpt lat="45.83534" lon="3.03837">
        <ele>562.51</ele>
        <time>2015-06-28T08:59:52Z</time>
      </trkpt>
      <trkpt lat="45.83523" lon="3.03817">
        <ele>561.55</ele>
        <time>2015-06-28T08:59:54Z</time>
      </trkpt>
      <trkpt lat="45.83515" lon="3.03812">
        <ele>561.07</ele>
        <time>2015-06-28T08:59:55Z</time>
      </trkpt>
      <trkpt lat="45.83505" lon="3.03809">
        <ele>558.66</ele>
        <time>2015-06-28T08:59:56Z</time>
      </trkpt>
      <trkpt lat="45.83496" lon="3.03807">
        <ele>558.66</ele>
        <time>2015-06-28T08:59:57Z</time>
      </trkpt>
      <trkpt lat="45.83459" lon="3.03801">
        <ele>557.22</ele>
        <time>2015-06-28T09:00:01Z</time>
      </trkpt>
      <trkpt lat="45.83449" lon="3.03804">
        <ele>558.18</ele>
        <time>2015-06-28T09:00:02Z</time>
      </trkpt>
      <trkpt lat="45.8344" lon="3.0381">
        <ele>557.22</ele>
        <time>2015-06-28T09:00:03Z</time>
      </trkpt>
      <trkpt lat="45.83432" lon="3.03818">
        <ele>557.22</ele>
        <time>2015-06-28T09:00:04Z</time>
      </trkpt>
      <trkpt lat="45.83427" lon="3.03829">
        <ele>556.74</ele>
        <time>2015-06-28T09:00:05Z</time>
      </trkpt>
      <trkpt lat="45.83421" lon="3.03839">
        <ele>556.26</ele>
        <time>2015-06-28T09:00:06Z</time>
      </trkpt>
      <trkpt lat="45.83415" lon="3.0385">
        <ele>555.78</ele>
        <time>2015-06-28T09:00:07Z</time>
      </trkpt>
      <trkpt lat="45.8341" lon="3.03861">
        <ele>554.82</ele>
        <time>2015-06-28T09:00:08Z</time>
      </trkpt>
      <trkpt lat="45.83406" lon="3.03873">
        <ele>554.82</ele>
        <time>2015-06-28T09:00:09Z</time>
      </trkpt>
      <trkpt lat="45.83402" lon="3.03896">
        <ele>555.3</ele>
        <time>2015-06-28T09:00:10Z</time>
      </trkpt>
      <trkpt lat="45.834" lon="3.03916">
        <ele>555.3</ele>
        <time>2015-06-28T09:00:11Z</time>
      </trkpt>
      <trkpt lat="45.834" lon="3.03934">
        <ele>554.34</ele>
        <time>2015-06-28T09:00:12Z</time>
      </trkpt>
      <trkpt lat="45.83403" lon="3.03949">
        <ele>553.86</ele>
        <time>2015-06-28T09:00:13Z</time>
      </trkpt>
      <trkpt lat="45.83428" lon="3.04055">
        <ele>551.45</ele>
        <time>2015-06-28T09:00:21Z</time>
      </trkpt>
      <trkpt lat="45.8348" lon="3.04205">
        <ele>548.57</ele>
        <time>2015-06-28T09:00:34Z</time>
      </trkpt>
      <trkpt lat="45.83498" lon="3.04255">
        <ele>549.05</ele>
        <time>2015-06-28T09:00:39Z</time>
      </trkpt>
      <trkpt lat="45.83508" lon="3.04376">
        <ele>545.2</ele>
        <time>2015-06-28T09:00:51Z</time>
      </trkpt>
      <trkpt lat="45.83507" lon="3.04383">
        <ele>546.17</ele>
        <time>2015-06-28T09:00:52Z</time>
      </trkpt>
      <trkpt lat="45.83505" lon="3.04389">
        <ele>545.69</ele>
        <time>2015-06-28T09:00:53Z</time>
      </trkpt>
      <trkpt lat="45.83496" lon="3.04395">
        <ele>544.24</ele>
        <time>2015-06-28T09:00:54Z</time>
      </trkpt>
      <trkpt lat="45.83486" lon="3.04401">
        <ele>544.24</ele>
        <time>2015-06-28T09:00:55Z</time>
      </trkpt>
      <trkpt lat="45.83473" lon="3.04408">
        <ele>544.24</ele>
        <time>2015-06-28T09:00:56Z</time>
      </trkpt>
      <trkpt lat="45.8346" lon="3.04414">
        <ele>544.24</ele>
        <time>2015-06-28T09:00:57Z</time>
      </trkpt>
      <trkpt lat="45.83352" lon="3.04465">
        <ele>540.88</ele>
        <time>2015-06-28T09:01:10Z</time>
      </trkpt>
      <trkpt lat="45.83274" lon="3.04509">
        <ele>538.48</ele>
        <time>2015-06-28T09:01:20Z</time>
      </trkpt>
      <trkpt lat="45.83265" lon="3.0451">
        <ele>538.48</ele>
        <time>2015-06-28T09:01:21Z</time>
      </trkpt>
      <trkpt lat="45.83203" lon="3.04508">
        <ele>535.11</ele>
        <time>2015-06-28T09:01:28Z</time>
      </trkpt>
      <trkpt lat="45.83177" lon="3.04503">
        <ele>533.67</ele>
        <time>2015-06-28T09:01:31Z</time>
      </trkpt>
      <trkpt lat="45.83169" lon="3.04498">
        <ele>533.67</ele>
        <time>2015-06-28T09:01:32Z</time>
      </trkpt>
      <trkpt lat="45.83161" lon="3.04491">
        <ele>532.71</ele>
        <time>2015-06-28T09:01:33Z</time>
      </trkpt>
      <trkpt lat="45.83154" lon="3.04482">
        <ele>532.23</ele>
        <time>2015-06-28T09:01:34Z</time>
      </trkpt>
      <trkpt lat="45.83136" lon="3.04453">
        <ele>531.27</ele>
        <time>2015-06-28T09:01:37Z</time>
      </trkpt>
      <trkpt lat="45.83129" lon="3.04445">
        <ele>530.79</ele>
        <time>2015-06-28T09:01:38Z</time>
      </trkpt>
      <trkpt lat="45.83121" lon="3.0444">
        <ele>531.27</ele>
        <time>2015-06-28T09:01:39Z</time>
      </trkpt>
      <trkpt lat="45.83046" lon="3.04429">
        <ele>528.86</ele>
        <time>2015-06-28T09:01:48Z</time>
      </trkpt>
      <trkpt lat="45.8305" lon="3.0448">
        <ele>527.9</ele>
        <time>2015-06-28T09:01:49Z</time>
      </trkpt>
      <trkpt lat="45.83049" lon="3.04511">
        <ele>527.9</ele>
        <time>2015-06-28T09:01:50Z</time>
      </trkpt>
      <trkpt lat="45.83024" lon="3.04592">
        <ele>525.5</ele>
        <time>2015-06-28T09:01:56Z</time>
      </trkpt>
      <trkpt lat="45.83017" lon="3.04604">
        <ele>525.5</ele>
        <time>2015-06-28T09:01:57Z</time>
      </trkpt>
      <trkpt lat="45.83016" lon="3.04637">
        <ele>525.02</ele>
        <time>2015-06-28T09:01:58Z</time>
      </trkpt>
      <trkpt lat="45.83008" lon="3.04646">
        <ele>524.54</ele>
        <time>2015-06-28T09:01:59Z</time>
      </trkpt>
      <trkpt lat="45.82999" lon="3.04652">
        <ele>524.06</ele>
        <time>2015-06-28T09:02:00Z</time>
      </trkpt>
      <trkpt lat="45.82989" lon="3.04658">
        <ele>524.06</ele>
        <time>2015-06-28T09:02:01Z</time>
      </trkpt>
      <trkpt lat="45.8298" lon="3.04662">
        <ele>523.09</ele>
        <time>2015-06-28T09:02:02Z</time>
      </trkpt>
      <trkpt lat="45.8297" lon="3.04666">
        <ele>523.09</ele>
        <time>2015-06-28T09:02:03Z</time>
      </trkpt>
      <trkpt lat="45.8293" lon="3.04681">
        <ele>521.65</ele>
        <time>2015-06-28T09:02:07Z</time>
      </trkpt>
      <trkpt lat="45.82843" lon="3.04713">
        <ele>518.29</ele>
        <time>2015-06-28T09:02:16Z</time>
      </trkpt>
      <trkpt lat="45.82834" lon="3.04715">
        <ele>517.33</ele>
        <time>2015-06-28T09:02:17Z</time>
      </trkpt>
      <trkpt lat="45.82824" lon="3.04713">
        <ele>516.85</ele>
        <time>2015-06-28T09:02:18Z</time>
      </trkpt>
      <trkpt lat="45.82815" lon="3.0471">
        <ele>515.88</ele>
        <time>2015-06-28T09:02:19Z</time>
      </trkpt>
      <trkpt lat="45.82807" lon="3.04703">
        <ele>515.88</ele>
        <time>2015-06-28T09:02:20Z</time>
      </trkpt>
      <trkpt lat="45.82799" lon="3.04697">
        <ele>514.92</ele>
        <time>2015-06-28T09:02:21Z</time>
      </trkpt>
      <trkpt lat="45.82791" lon="3.0469">
        <ele>514.92</ele>
        <time>2015-06-28T09:02:22Z</time>
      </trkpt>
      <trkpt lat="45.82765" lon="3.04674">
        <ele>514.44</ele>
        <time>2015-06-28T09:02:25Z</time>
      </trkpt>
      <trkpt lat="45.82715" lon="3.04661">
        <ele>511.08</ele>
        <time>2015-06-28T09:02:31Z</time>
      </trkpt>
      <trkpt lat="45.82708" lon="3.04661">
        <ele>510.6</ele>
        <time>2015-06-28T09:02:32Z</time>
      </trkpt>
      <trkpt lat="45.82704" lon="3.04796">
        <ele>510.12</ele>
        <time>2015-06-28T09:02:38Z</time>
      </trkpt>
      <trkpt lat="45.82701" lon="3.04809">
        <ele>510.12</ele>
        <time>2015-06-28T09:02:39Z</time>
      </trkpt>
      <trkpt lat="45.82695" lon="3.04817">
        <ele>509.64</ele>
        <time>2015-06-28T09:02:40Z</time>
      </trkpt>
      <trkpt lat="45.82664" lon="3.04843">
        <ele>508.19</ele>
        <time>2015-06-28T09:02:43Z</time>
      </trkpt>
      <trkpt lat="45.82652" lon="3.04848">
        <ele>508.19</ele>
        <time>2015-06-28T09:02:44Z</time>
      </trkpt>
      <trkpt lat="45.82577" lon="3.04863">
        <ele>504.35</ele>
        <time>2015-06-28T09:02:52Z</time>
      </trkpt>
      <trkpt lat="45.82441" lon="3.04892">
        <ele>502.43</ele>
        <time>2015-06-28T09:03:09Z</time>
      </trkpt>
      <trkpt lat="45.82329" lon="3.0496">
        <ele>500.02</ele>
        <time>2015-06-28T09:03:26Z</time>
      </trkpt>
      <trkpt lat="45.82307" lon="3.04976">
        <ele>499.54</ele>
        <time>2015-06-28T09:03:30Z</time>
      </trkpt>
      <trkpt lat="45.82301" lon="3.04979">
        <ele>499.54</ele>
        <time>2015-06-28T09:03:31Z</time>
      </trkpt>
      <trkpt lat="45.82294" lon="3.0498">
        <ele>499.54</ele>
        <time>2015-06-28T09:03:32Z</time>
      </trkpt>
      <trkpt lat="45.82288" lon="3.0498">
        <ele>500.02</ele>
        <time>2015-06-28T09:03:33Z</time>
      </trkpt>
      <trkpt lat="45.82281" lon="3.04979">
        <ele>499.54</ele>
        <time>2015-06-28T09:03:34Z</time>
      </trkpt>
      <trkpt lat="45.82274" lon="3.04977">
        <ele>499.06</ele>
        <time>2015-06-28T09:03:35Z</time>
      </trkpt>
      <trkpt lat="45.82268" lon="3.04973">
        <ele>499.54</ele>
        <time>2015-06-28T09:03:36Z</time>
      </trkpt>
      <trkpt lat="45.82261" lon="3.0497">
        <ele>499.06</ele>
        <time>2015-06-28T09:03:37Z</time>
      </trkpt>
      <trkpt lat="45.82235" lon="3.04956">
        <ele>499.54</ele>
        <time>2015-06-28T09:03:41Z</time>
      </trkpt>
      <trkpt lat="45.82146" lon="3.04965">
        <ele>499.54</ele>
        <time>2015-06-28T09:03:55Z</time>
      </trkpt>
      <trkpt lat="45.82083" lon="3.04974">
        <ele>498.58</ele>
        <time>2015-06-28T09:04:05Z</time>
      </trkpt>
      <trkpt lat="45.81975" lon="3.0496">
        <ele>498.1</ele>
        <time>2015-06-28T09:04:22Z</time>
      </trkpt>
      <trkpt lat="45.81911" lon="3.04959">
        <ele>497.62</ele>
        <time>2015-06-28T09:04:32Z</time>
      </trkpt>
      <trkpt lat="45.81905" lon="3.04957">
        <ele>497.14</ele>
        <time>2015-06-28T09:04:33Z</time>
      </trkpt>
      <trkpt lat="45.81899" lon="3.04951">
        <ele>497.62</ele>
        <time>2015-06-28T09:04:34Z</time>
      </trkpt>
      <trkpt lat="45.81893" lon="3.04944">
        <ele>497.14</ele>
        <time>2015-06-28T09:04:35Z</time>
      </trkpt>
      <trkpt lat="45.81888" lon="3.04936">
        <ele>497.14</ele>
        <time>2015-06-28T09:04:36Z</time>
      </trkpt>
      <trkpt lat="45.81884" lon="3.04928">
        <ele>497.14</ele>
        <time>2015-06-28T09:04:37Z</time>
      </trkpt>
      <trkpt lat="45.81879" lon="3.04919">
        <ele>497.62</ele>
        <time>2015-06-28T09:04:38Z</time>
      </trkpt>
      <trkpt lat="45.8187" lon="3.04904">
        <ele>497.62</ele>
        <time>2015-06-28T09:04:40Z</time>
      </trkpt>
      <trkpt lat="45.81865" lon="3.04897">
        <ele>498.1</ele>
        <time>2015-06-28T09:04:41Z</time>
      </trkpt>
      <trkpt lat="45.8186" lon="3.04892">
        <ele>498.1</ele>
        <time>2015-06-28T09:04:42Z</time>
      </trkpt>
      <trkpt lat="45.81855" lon="3.04888">
        <ele>498.58</ele>
        <time>2015-06-28T09:04:43Z</time>
      </trkpt>
      <trkpt lat="45.81849" lon="3.04885">
        <ele>498.1</ele>
        <time>2015-06-28T09:04:44Z</time>
      </trkpt>
      <trkpt lat="45.81844" lon="3.04883">
        <ele>497.62</ele>
        <time>2015-06-28T09:04:45Z</time>
      </trkpt>
      <trkpt lat="45.81837" lon="3.04881">
        <ele>497.14</ele>
        <time>2015-06-28T09:04:46Z</time>
      </trkpt>
      <trkpt lat="45.8175" lon="3.04865">
        <ele>496.66</ele>
        <time>2015-06-28T09:04:59Z</time>
      </trkpt>
      <trkpt lat="45.81743" lon="3.04866">
        <ele>496.66</ele>
        <time>2015-06-28T09:05:00Z</time>
      </trkpt>
      <trkpt lat="45.81737" lon="3.04868">
        <ele>496.18</ele>
        <time>2015-06-28T09:05:01Z</time>
      </trkpt>
      <trkpt lat="45.8173" lon="3.04871">
        <ele>496.66</ele>
        <time>2015-06-28T09:05:02Z</time>
      </trkpt>
      <trkpt lat="45.81724" lon="3.04875">
        <ele>497.14</ele>
        <time>2015-06-28T09:05:03Z</time>
      </trkpt>
      <trkpt lat="45.81718" lon="3.0488">
        <ele>497.14</ele>
        <time>2015-06-28T09:05:04Z</time>
      </trkpt>
      <trkpt lat="45.81713" lon="3.04885">
        <ele>496.66</ele>
        <time>2015-06-28T09:05:05Z</time>
      </trkpt>
      <trkpt lat="45.81661" lon="3.04932">
        <ele>496.18</ele>
        <time>2015-06-28T09:05:14Z</time>
      </trkpt>
      <trkpt lat="45.81654" lon="3.04934">
        <ele>496.66</ele>
        <time>2015-06-28T09:05:15Z</time>
      </trkpt>
      <trkpt lat="45.81639" lon="3.04937">
        <ele>497.14</ele>
        <time>2015-06-28T09:05:17Z</time>
      </trkpt>
      <trkpt lat="45.81632" lon="3.04937">
        <ele>496.66</ele>
        <time>2015-06-28T09:05:18Z</time>
      </trkpt>
      <trkpt lat="45.81529" lon="3.0493">
        <ele>495.7</ele>
        <time>2015-06-28T09:05:33Z</time>
      </trkpt>
      <trkpt lat="45.81455" lon="3.04964">
        <ele>495.7</ele>
        <time>2015-06-28T09:05:46Z</time>
      </trkpt>
      <trkpt lat="45.8145" lon="3.04967">
        <ele>495.7</ele>
        <time>2015-06-28T09:05:47Z</time>
      </trkpt>
      <trkpt lat="45.81444" lon="3.04971">
        <ele>496.18</ele>
        <time>2015-06-28T09:05:48Z</time>
      </trkpt>
      <trkpt lat="45.8144" lon="3.04975">
        <ele>495.7</ele>
        <time>2015-06-28T09:05:49Z</time>
      </trkpt>
      <trkpt lat="45.81435" lon="3.04979">
        <ele>496.18</ele>
        <time>2015-06-28T09:05:50Z</time>
      </trkpt>
      <trkpt lat="45.81429" lon="3.04982">
        <ele>495.7</ele>
        <time>2015-06-28T09:05:51Z</time>
      </trkpt>
      <trkpt lat="45.81423" lon="3.04984">
        <ele>495.22</ele>
        <time>2015-06-28T09:05:52Z</time>
      </trkpt>
      <trkpt lat="45.81417" lon="3.04986">
        <ele>495.22</ele>
        <time>2015-06-28T09:05:53Z</time>
      </trkpt>
      <trkpt lat="45.81397" lon="3.04992">
        <ele>496.18</ele>
        <time>2015-06-28T09:05:56Z</time>
      </trkpt>
      <trkpt lat="45.81364" lon="3.04996">
        <ele>495.7</ele>
        <time>2015-06-28T09:06:01Z</time>
      </trkpt>
      <trkpt lat="45.81358" lon="3.04999">
        <ele>495.22</ele>
        <time>2015-06-28T09:06:02Z</time>
      </trkpt>
      <trkpt lat="45.81321" lon="3.05015">
        <ele>495.22</ele>
        <time>2015-06-28T09:06:08Z</time>
      </trkpt>
      <trkpt lat="45.81314" lon="3.05015">
        <ele>494.74</ele>
        <time>2015-06-28T09:06:09Z</time>
      </trkpt>
      <trkpt lat="45.81307" lon="3.05014">
        <ele>494.74</ele>
        <time>2015-06-28T09:06:10Z</time>
      </trkpt>
      <trkpt lat="45.81301" lon="3.05012">
        <ele>494.74</ele>
        <time>2015-06-28T09:06:11Z</time>
      </trkpt>
      <trkpt lat="45.81294" lon="3.05009">
        <ele>494.74</ele>
        <time>2015-06-28T09:06:12Z</time>
      </trkpt>
      <trkpt lat="45.81288" lon="3.05006">
        <ele>494.74</ele>
        <time>2015-06-28T09:06:13Z</time>
      </trkpt>
      <trkpt lat="45.81198" lon="3.05001">
        <ele>495.22</ele>
        <time>2015-06-28T09:06:26Z</time>
      </trkpt>
      <trkpt lat="45.81072" lon="3.05038">
        <ele>493.29</ele>
        <time>2015-06-28T09:06:44Z</time>
      </trkpt>
      <trkpt lat="45.81065" lon="3.05038">
        <ele>493.29</ele>
        <time>2015-06-28T09:06:45Z</time>
      </trkpt>
      <trkpt lat="45.81058" lon="3.05037">
        <ele>493.77</ele>
        <time>2015-06-28T09:06:46Z</time>
      </trkpt>
      <trkpt lat="45.8105" lon="3.05036">
        <ele>493.29</ele>
        <time>2015-06-28T09:06:47Z</time>
      </trkpt>
      <trkpt lat="45.80935" lon="3.05006">
        <ele>492.81</ele>
        <time>2015-06-28T09:07:04Z</time>
      </trkpt>
      <trkpt lat="45.8084" lon="3.04987">
        <ele>493.77</ele>
        <time>2015-06-28T09:07:20Z</time>
      </trkpt>
      <trkpt lat="45.80828" lon="3.04987">
        <ele>494.74</ele>
        <time>2015-06-28T09:07:22Z</time>
      </trkpt>
      <trkpt lat="45.80822" lon="3.04988">
        <ele>494.74</ele>
        <time>2015-06-28T09:07:23Z</time>
      </trkpt>
      <trkpt lat="45.80787" lon="3.05005">
        <ele>495.7</ele>
        <time>2015-06-28T09:07:30Z</time>
      </trkpt>
      <trkpt lat="45.80785" lon="3.0501">
        <ele>495.22</ele>
        <time>2015-06-28T09:07:31Z</time>
      </trkpt>
      <trkpt lat="45.80783" lon="3.05015">
        <ele>495.22</ele>
        <time>2015-06-28T09:07:32Z</time>
      </trkpt>
      <trkpt lat="45.80781" lon="3.05021">
        <ele>495.7</ele>
        <time>2015-06-28T09:07:33Z</time>
      </trkpt>
      <trkpt lat="45.80781" lon="3.05031">
        <ele>495.7</ele>
        <time>2015-06-28T09:07:34Z</time>
      </trkpt>
      <trkpt lat="45.80783" lon="3.05055">
        <ele>496.18</ele>
        <time>2015-06-28T09:07:35Z</time>
      </trkpt>
      <trkpt lat="45.80782" lon="3.05065">
        <ele>496.18</ele>
        <time>2015-06-28T09:07:36Z</time>
      </trkpt>
      <trkpt lat="45.80781" lon="3.05072">
        <ele>496.18</ele>
        <time>2015-06-28T09:07:37Z</time>
      </trkpt>
      <trkpt lat="45.80779" lon="3.05081">
        <ele>495.7</ele>
        <time>2015-06-28T09:07:38Z</time>
      </trkpt>
      <trkpt lat="45.80776" lon="3.05087">
        <ele>496.18</ele>
        <time>2015-06-28T09:07:39Z</time>
      </trkpt>
      <trkpt lat="45.80771" lon="3.05091">
        <ele>496.18</ele>
        <time>2015-06-28T09:07:40Z</time>
      </trkpt>
      <trkpt lat="45.80766" lon="3.05095">
        <ele>496.18</ele>
        <time>2015-06-28T09:07:41Z</time>
      </trkpt>
      <trkpt lat="45.8076" lon="3.05098">
        <ele>496.66</ele>
        <time>2015-06-28T09:07:42Z</time>
      </trkpt>
      <trkpt lat="45.80755" lon="3.051">
        <ele>496.66</ele>
        <time>2015-06-28T09:07:43Z</time>
      </trkpt>
      <trkpt lat="45.80749" lon="3.05102">
        <ele>497.14</ele>
        <time>2015-06-28T09:07:44Z</time>
      </trkpt>
      <trkpt lat="45.80743" lon="3.05102">
        <ele>497.62</ele>
        <time>2015-06-28T09:07:45Z</time>
      </trkpt>
      <trkpt lat="45.80737" lon="3.05102">
        <ele>497.14</ele>
        <time>2015-06-28T09:07:46Z</time>
      </trkpt>
      <trkpt lat="45.80653" lon="3.05075">
        <ele>500.02</ele>
        <time>2015-06-28T09:08:03Z</time>
      </trkpt>
      <trkpt lat="45.80563" lon="3.05053">
        <ele>502.91</ele>
        <time>2015-06-28T09:08:22Z</time>
      </trkpt>
      <trkpt lat="45.80482" lon="3.05036">
        <ele>505.79</ele>
        <time>2015-06-28T09:08:40Z</time>
      </trkpt>
      <trkpt lat="45.80468" lon="3.05035">
        <ele>505.79</ele>
        <time>2015-06-28T09:08:43Z</time>
      </trkpt>
      <trkpt lat="45.80437" lon="3.05029">
        <ele>507.23</ele>
        <time>2015-06-28T09:08:50Z</time>
      </trkpt>
      <trkpt lat="45.80424" lon="3.05032">
        <ele>506.75</ele>
        <time>2015-06-28T09:08:53Z</time>
      </trkpt>
      <trkpt lat="45.8042" lon="3.05035">
        <ele>507.71</ele>
        <time>2015-06-28T09:08:54Z</time>
      </trkpt>
      <trkpt lat="45.8041" lon="3.05044">
        <ele>507.71</ele>
        <time>2015-06-28T09:08:57Z</time>
      </trkpt>
      <trkpt lat="45.80407" lon="3.05049">
        <ele>508.19</ele>
        <time>2015-06-28T09:08:58Z</time>
      </trkpt>
      <trkpt lat="45.80393" lon="3.05073">
        <ele>508.19</ele>
        <time>2015-06-28T09:09:03Z</time>
      </trkpt>
      <trkpt lat="45.8039" lon="3.05077">
        <ele>507.71</ele>
        <time>2015-06-28T09:09:04Z</time>
      </trkpt>
      <trkpt lat="45.80359" lon="3.05104">
        <ele>509.16</ele>
        <time>2015-06-28T09:09:12Z</time>
      </trkpt>
      <trkpt lat="45.80355" lon="3.05106">
        <ele>508.67</ele>
        <time>2015-06-28T09:09:13Z</time>
      </trkpt>
      <trkpt lat="45.80313" lon="3.05127">
        <ele>510.6</ele>
        <time>2015-06-28T09:09:24Z</time>
      </trkpt>
      <trkpt lat="45.80309" lon="3.05129">
        <ele>510.6</ele>
        <time>2015-06-28T09:09:25Z</time>
      </trkpt>
      <trkpt lat="45.80305" lon="3.05131">
        <ele>511.08</ele>
        <time>2015-06-28T09:09:26Z</time>
      </trkpt>
      <trkpt lat="45.8023" lon="3.0514">
        <ele>513</ele>
        <time>2015-06-28T09:09:43Z</time>
      </trkpt>
      <trkpt lat="45.80188" lon="3.05162">
        <ele>513.96</ele>
        <time>2015-06-28T09:09:54Z</time>
      </trkpt>
      <trkpt lat="45.80119" lon="3.052">
        <ele>516.37</ele>
        <time>2015-06-28T09:10:11Z</time>
      </trkpt>
      <trkpt lat="45.80073" lon="3.05197">
        <ele>517.33</ele>
        <time>2015-06-28T09:10:21Z</time>
      </trkpt>
      <trkpt lat="45.80001" lon="3.05199">
        <ele>520.69</ele>
        <time>2015-06-28T09:10:38Z</time>
      </trkpt>
      <trkpt lat="45.79923" lon="3.05214">
        <ele>523.09</ele>
        <time>2015-06-28T09:10:56Z</time>
      </trkpt>
      <trkpt lat="45.7988" lon="3.05219">
        <ele>524.06</ele>
        <time>2015-06-28T09:11:06Z</time>
      </trkpt>
      <trkpt lat="45.79811" lon="3.05226">
        <ele>525.5</ele>
        <time>2015-06-28T09:11:24Z</time>
      </trkpt>
      <trkpt lat="45.79775" lon="3.05246">
        <ele>526.46</ele>
        <time>2015-06-28T09:11:39Z</time>
      </trkpt>
      <trkpt lat="45.79739" lon="3.0524">
        <ele>526.46</ele>
        <time>2015-06-28T09:11:53Z</time>
      </trkpt>
      <trkpt lat="45.79692" lon="3.05251">
        <ele>527.9</ele>
        <time>2015-06-28T09:12:11Z</time>
      </trkpt>
      <trkpt lat="45.79647" lon="3.05255">
        <ele>528.86</ele>
        <time>2015-06-28T09:12:29Z</time>
      </trkpt>
      <trkpt lat="45.79607" lon="3.05248">
        <ele>530.3</ele>
        <time>2015-06-28T09:12:44Z</time>
      </trkpt>
      <trkpt lat="45.79588" lon="3.05245">
        <ele>530.79</ele>
        <time>2015-06-28T09:13:00Z</time>
      </trkpt>
      <trkpt lat="45.79581" lon="3.05249">
        <ele>531.27</ele>
        <time>2015-06-28T09:13:23Z</time>
      </trkpt>
      <trkpt lat="45.79539" lon="3.05249">
        <ele>533.19</ele>
        <time>2015-06-28T09:13:40Z</time>
      </trkpt>
      <trkpt lat="45.79525" lon="3.0525">
        <ele>535.59</ele>
        <time>2015-06-28T09:13:45Z</time>
      </trkpt>
      <trkpt lat="45.79495" lon="3.05261">
        <ele>537.99</ele>
        <time>2015-06-28T09:13:57Z</time>
      </trkpt>
      <trkpt lat="45.79494" lon="3.05264">
        <ele>537.99</ele>
        <time>2015-06-28T09:13:58Z</time>
      </trkpt>
      <trkpt lat="45.79491" lon="3.05267">
        <ele>537.99</ele>
        <time>2015-06-28T09:13:59Z</time>
      </trkpt>
      <trkpt lat="45.79489" lon="3.05269">
        <ele>538.48</ele>
        <time>2015-06-28T09:14:00Z</time>
      </trkpt>
      <trkpt lat="45.79487" lon="3.0527">
        <ele>538.48</ele>
        <time>2015-06-28T09:14:01Z</time>
      </trkpt>
      <trkpt lat="45.79484" lon="3.05271">
        <ele>538.48</ele>
        <time>2015-06-28T09:14:02Z</time>
      </trkpt>
      <trkpt lat="45.79451" lon="3.0528">
        <ele>540.4</ele>
        <time>2015-06-28T09:14:18Z</time>
      </trkpt>
      <trkpt lat="45.79397" lon="3.05291">
        <ele>537.99</ele>
        <time>2015-06-28T09:14:33Z</time>
      </trkpt>
      <trkpt lat="45.7933" lon="3.05307">
        <ele>534.63</ele>
        <time>2015-06-28T09:14:41Z</time>
      </trkpt>
      <trkpt lat="45.79291" lon="3.05325">
        <ele>531.27</ele>
        <time>2015-06-28T09:14:45Z</time>
      </trkpt>
      <trkpt lat="45.7925" lon="3.05348">
        <ele>527.9</ele>
        <time>2015-06-28T09:14:49Z</time>
      </trkpt>
      <trkpt lat="45.79228" lon="3.05358">
        <ele>525.98</ele>
        <time>2015-06-28T09:14:51Z</time>
      </trkpt>
      <trkpt lat="45.79193" lon="3.05366">
        <ele>523.58</ele>
        <time>2015-06-28T09:14:54Z</time>
      </trkpt>
      <trkpt lat="45.79136" lon="3.05368">
        <ele>520.21</ele>
        <time>2015-06-28T09:14:59Z</time>
      </trkpt>
      <trkpt lat="45.79026" lon="3.05382">
        <ele>517.81</ele>
        <time>2015-06-28T09:15:11Z</time>
      </trkpt>
      <trkpt lat="45.78999" lon="3.05395">
        <ele>515.88</ele>
        <time>2015-06-28T09:15:14Z</time>
      </trkpt>
      <trkpt lat="45.78991" lon="3.05401">
        <ele>515.4</ele>
        <time>2015-06-28T09:15:15Z</time>
      </trkpt>
      <trkpt lat="45.78975" lon="3.05416">
        <ele>514.44</ele>
        <time>2015-06-28T09:15:17Z</time>
      </trkpt>
      <trkpt lat="45.78959" lon="3.05435">
        <ele>513</ele>
        <time>2015-06-28T09:15:19Z</time>
      </trkpt>
      <trkpt lat="45.78951" lon="3.05444">
        <ele>513</ele>
        <time>2015-06-28T09:15:20Z</time>
      </trkpt>
      <trkpt lat="45.78944" lon="3.05455">
        <ele>512.52</ele>
        <time>2015-06-28T09:15:21Z</time>
      </trkpt>
      <trkpt lat="45.78938" lon="3.05466">
        <ele>511.56</ele>
        <time>2015-06-28T09:15:22Z</time>
      </trkpt>
      <trkpt lat="45.78935" lon="3.05481">
        <ele>510.6</ele>
        <time>2015-06-28T09:15:23Z</time>
      </trkpt>
      <trkpt lat="45.78933" lon="3.05493">
        <ele>510.12</ele>
        <time>2015-06-28T09:15:24Z</time>
      </trkpt>
      <trkpt lat="45.78933" lon="3.05502">
        <ele>509.64</ele>
        <time>2015-06-28T09:15:25Z</time>
      </trkpt>
      <trkpt lat="45.78917" lon="3.0557">
        <ele>506.27</ele>
        <time>2015-06-28T09:15:31Z</time>
      </trkpt>
      <trkpt lat="45.78851" lon="3.05689">
        <ele>504.35</ele>
        <time>2015-06-28T09:15:43Z</time>
      </trkpt>
      <trkpt lat="45.78813" lon="3.05754">
        <ele>503.87</ele>
        <time>2015-06-28T09:15:52Z</time>
      </trkpt>
      <trkpt lat="45.78799" lon="3.05767">
        <ele>502.91</ele>
        <time>2015-06-28T09:15:55Z</time>
      </trkpt>
      <trkpt lat="45.78794" lon="3.0577">
        <ele>502.91</ele>
        <time>2015-06-28T09:15:56Z</time>
      </trkpt>
      <trkpt lat="45.78789" lon="3.05772">
        <ele>503.87</ele>
        <time>2015-06-28T09:15:57Z</time>
      </trkpt>
      <trkpt lat="45.78762" lon="3.05776">
        <ele>505.31</ele>
        <time>2015-06-28T09:16:02Z</time>
      </trkpt>
      <trkpt lat="45.78713" lon="3.05772">
        <ele>508.19</ele>
        <time>2015-06-28T09:16:15Z</time>
      </trkpt>
      <trkpt lat="45.78692" lon="3.05726">
        <ele>510.12</ele>
        <time>2015-06-28T09:16:30Z</time>
      </trkpt>
      <trkpt lat="45.78669" lon="3.05666">
        <ele>511.08</ele>
        <time>2015-06-28T09:16:50Z</time>
      </trkpt>
      <trkpt lat="45.78638" lon="3.05638">
        <ele>511.08</ele>
        <time>2015-06-28T09:17:05Z</time>
      </trkpt>
      <trkpt lat="45.78597" lon="3.05656">
        <ele>510.12</ele>
        <time>2015-06-28T09:17:19Z</time>
      </trkpt>
      <trkpt lat="45.78566" lon="3.05694">
        <ele>509.16</ele>
        <time>2015-06-28T09:17:29Z</time>
      </trkpt>
      <trkpt lat="45.78561" lon="3.05698">
        <ele>509.16</ele>
        <time>2015-06-28T09:17:30Z</time>
      </trkpt>
      <trkpt lat="45.78556" lon="3.057">
        <ele>509.16</ele>
        <time>2015-06-28T09:17:31Z</time>
      </trkpt>
      <trkpt lat="45.78529" lon="3.05711">
        <ele>508.19</ele>
        <time>2015-06-28T09:17:36Z</time>
      </trkpt>
      <trkpt lat="45.78448" lon="3.05718">
        <ele>507.23</ele>
        <time>2015-06-28T09:17:53Z</time>
      </trkpt>
      <trkpt lat="45.78417" lon="3.05721">
        <ele>507.23</ele>
        <time>2015-06-28T09:18:01Z</time>
      </trkpt>
      <trkpt lat="45.78412" lon="3.05722">
        <ele>506.75</ele>
        <time>2015-06-28T09:18:02Z</time>
      </trkpt>
      <trkpt lat="45.78393" lon="3.05737">
        <ele>507.23</ele>
        <time>2015-06-28T09:18:07Z</time>
      </trkpt>
      <trkpt lat="45.7839" lon="3.05743">
        <ele>506.27</ele>
        <time>2015-06-28T09:18:08Z</time>
      </trkpt>
      <trkpt lat="45.78388" lon="3.05749">
        <ele>506.27</ele>
        <time>2015-06-28T09:18:09Z</time>
      </trkpt>
      <trkpt lat="45.78386" lon="3.05755">
        <ele>506.27</ele>
        <time>2015-06-28T09:18:10Z</time>
      </trkpt>
      <trkpt lat="45.78383" lon="3.0576">
        <ele>505.31</ele>
        <time>2015-06-28T09:18:11Z</time>
      </trkpt>
      <trkpt lat="45.7838" lon="3.05765">
        <ele>504.83</ele>
        <time>2015-06-28T09:18:12Z</time>
      </trkpt>
      <trkpt lat="45.78366" lon="3.05786">
        <ele>505.79</ele>
        <time>2015-06-28T09:18:16Z</time>
      </trkpt>
      <trkpt lat="45.78314" lon="3.05836">
        <ele>503.39</ele>
        <time>2015-06-28T09:18:29Z</time>
      </trkpt>
      <trkpt lat="45.78308" lon="3.05838">
        <ele>502.91</ele>
        <time>2015-06-28T09:18:30Z</time>
      </trkpt>
      <trkpt lat="45.78269" lon="3.05843">
        <ele>502.43</ele>
        <time>2015-06-28T09:18:37Z</time>
      </trkpt>
      <trkpt lat="45.78221" lon="3.05835">
        <ele>501.95</ele>
        <time>2015-06-28T09:18:46Z</time>
      </trkpt>
      <trkpt lat="45.78216" lon="3.05836">
        <ele>501.46</ele>
        <time>2015-06-28T09:18:47Z</time>
      </trkpt>
      <trkpt lat="45.78171" lon="3.05854">
        <ele>500.02</ele>
        <time>2015-06-28T09:19:00Z</time>
      </trkpt>
      <trkpt lat="45.78125" lon="3.05869">
        <ele>499.54</ele>
        <time>2015-06-28T09:19:13Z</time>
      </trkpt>
      <trkpt lat="45.7809" lon="3.05862">
        <ele>498.58</ele>
        <time>2015-06-28T09:19:24Z</time>
      </trkpt>
      <trkpt lat="45.7807" lon="3.05832">
        <ele>498.1</ele>
        <time>2015-06-28T09:19:39Z</time>
      </trkpt>
      <trkpt lat="45.78058" lon="3.05808">
        <ele>497.62</ele>
        <time>2015-06-28T09:19:52Z</time>
      </trkpt>
      <trkpt lat="45.78028" lon="3.05761">
        <ele>497.62</ele>
        <time>2015-06-28T09:20:08Z</time>
      </trkpt>
      <trkpt lat="45.77997" lon="3.05688">
        <ele>496.66</ele>
        <time>2015-06-28T09:20:27Z</time>
      </trkpt>
      <trkpt lat="45.77967" lon="3.05602">
        <ele>495.7</ele>
        <time>2015-06-28T09:20:47Z</time>
      </trkpt>
      <trkpt lat="45.77951" lon="3.05516">
        <ele>494.74</ele>
        <time>2015-06-28T09:21:04Z</time>
      </trkpt>
      <trkpt lat="45.77906" lon="3.05476">
        <ele>495.22</ele>
        <time>2015-06-28T09:21:19Z</time>
      </trkpt>
      <trkpt lat="45.77875" lon="3.05488">
        <ele>493.29</ele>
        <time>2015-06-28T09:21:27Z</time>
      </trkpt>
      <trkpt lat="45.77871" lon="3.0549">
        <ele>493.29</ele>
        <time>2015-06-28T09:21:28Z</time>
      </trkpt>
      <trkpt lat="45.77867" lon="3.05493">
        <ele>492.81</ele>
        <time>2015-06-28T09:21:29Z</time>
      </trkpt>
      <trkpt lat="45.7786" lon="3.05499">
        <ele>492.81</ele>
        <time>2015-06-28T09:21:31Z</time>
      </trkpt>
      <trkpt lat="45.77823" lon="3.05527">
        <ele>490.89</ele>
        <time>2015-06-28T09:21:40Z</time>
      </trkpt>
      <trkpt lat="45.77818" lon="3.0553">
        <ele>490.89</ele>
        <time>2015-06-28T09:21:41Z</time>
      </trkpt>
      <trkpt lat="45.77811" lon="3.05532">
        <ele>490.41</ele>
        <time>2015-06-28T09:21:42Z</time>
      </trkpt>
      <trkpt lat="45.77804" lon="3.05533">
        <ele>490.41</ele>
        <time>2015-06-28T09:21:43Z</time>
      </trkpt>
      <trkpt lat="45.77795" lon="3.05534">
        <ele>490.41</ele>
        <time>2015-06-28T09:21:44Z</time>
      </trkpt>
      <trkpt lat="45.77787" lon="3.05533">
        <ele>489.93</ele>
        <time>2015-06-28T09:21:45Z</time>
      </trkpt>
      <trkpt lat="45.77779" lon="3.0553">
        <ele>489.45</ele>
        <time>2015-06-28T09:21:46Z</time>
      </trkpt>
      <trkpt lat="45.77772" lon="3.05526">
        <ele>488.97</ele>
        <time>2015-06-28T09:21:47Z</time>
      </trkpt>
      <trkpt lat="45.77765" lon="3.05521">
        <ele>488.49</ele>
        <time>2015-06-28T09:21:48Z</time>
      </trkpt>
      <trkpt lat="45.77758" lon="3.05516">
        <ele>488.49</ele>
        <time>2015-06-28T09:21:49Z</time>
      </trkpt>
      <trkpt lat="45.77753" lon="3.0551">
        <ele>488.97</ele>
        <time>2015-06-28T09:21:50Z</time>
      </trkpt>
      <trkpt lat="45.77747" lon="3.05502">
        <ele>488.01</ele>
        <time>2015-06-28T09:21:51Z</time>
      </trkpt>
      <trkpt lat="45.77726" lon="3.05459">
        <ele>487.05</ele>
        <time>2015-06-28T09:21:56Z</time>
      </trkpt>
      <trkpt lat="45.77721" lon="3.05451">
        <ele>487.05</ele>
        <time>2015-06-28T09:21:57Z</time>
      </trkpt>
      <trkpt lat="45.77715" lon="3.05444">
        <ele>486.08</ele>
        <time>2015-06-28T09:21:58Z</time>
      </trkpt>
      <trkpt lat="45.77709" lon="3.05437">
        <ele>485.6</ele>
        <time>2015-06-28T09:21:59Z</time>
      </trkpt>
      <trkpt lat="45.77703" lon="3.05431">
        <ele>485.6</ele>
        <time>2015-06-28T09:22:00Z</time>
      </trkpt>
      <trkpt lat="45.77696" lon="3.05427">
        <ele>485.12</ele>
        <time>2015-06-28T09:22:01Z</time>
      </trkpt>
      <trkpt lat="45.77689" lon="3.05423">
        <ele>484.64</ele>
        <time>2015-06-28T09:22:02Z</time>
      </trkpt>
      <trkpt lat="45.77682" lon="3.0542">
        <ele>484.64</ele>
        <time>2015-06-28T09:22:03Z</time>
      </trkpt>
      <trkpt lat="45.77638" lon="3.05404">
        <ele>482.72</ele>
        <time>2015-06-28T09:22:09Z</time>
      </trkpt>
      <trkpt lat="45.77631" lon="3.05403">
        <ele>482.24</ele>
        <time>2015-06-28T09:22:10Z</time>
      </trkpt>
      <trkpt lat="45.776" lon="3.05404">
        <ele>482.24</ele>
        <time>2015-06-28T09:22:14Z</time>
      </trkpt>
      <trkpt lat="45.77594" lon="3.05412">
        <ele>480.8</ele>
        <time>2015-06-28T09:22:15Z</time>
      </trkpt>
      <trkpt lat="45.77587" lon="3.05415">
        <ele>480.32</ele>
        <time>2015-06-28T09:22:16Z</time>
      </trkpt>
      <trkpt lat="45.77578" lon="3.05417">
        <ele>480.32</ele>
        <time>2015-06-28T09:22:17Z</time>
      </trkpt>
      <trkpt lat="45.77571" lon="3.05419">
        <ele>479.35</ele>
        <time>2015-06-28T09:22:18Z</time>
      </trkpt>
      <trkpt lat="45.77562" lon="3.0542">
        <ele>478.87</ele>
        <time>2015-06-28T09:22:19Z</time>
      </trkpt>
      <trkpt lat="45.77557" lon="3.05419">
        <ele>478.39</ele>
        <time>2015-06-28T09:22:20Z</time>
      </trkpt>
      <trkpt lat="45.77553" lon="3.05416">
        <ele>477.43</ele>
        <time>2015-06-28T09:22:21Z</time>
      </trkpt>
      <trkpt lat="45.77521" lon="3.05393">
        <ele>475.99</ele>
        <time>2015-06-28T09:22:32Z</time>
      </trkpt>
      <trkpt lat="45.77483" lon="3.05373">
        <ele>475.51</ele>
        <time>2015-06-28T09:22:40Z</time>
      </trkpt>
      <trkpt lat="45.77479" lon="3.05372">
        <ele>475.99</ele>
        <time>2015-06-28T09:22:41Z</time>
      </trkpt>
      <trkpt lat="45.77476" lon="3.05371">
        <ele>475.99</ele>
        <time>2015-06-28T09:22:42Z</time>
      </trkpt>
      <trkpt lat="45.77473" lon="3.05371">
        <ele>475.99</ele>
        <time>2015-06-28T09:22:43Z</time>
      </trkpt>
      <trkpt lat="45.77469" lon="3.05372">
        <ele>476.47</ele>
        <time>2015-06-28T09:22:44Z</time>
      </trkpt>
      <trkpt lat="45.77431" lon="3.05386">
        <ele>477.43</ele>
        <time>2015-06-28T09:22:53Z</time>
      </trkpt>
      <trkpt lat="45.77427" lon="3.05387">
        <ele>476.95</ele>
        <time>2015-06-28T09:22:54Z</time>
      </trkpt>
      <trkpt lat="45.77361" lon="3.05396">
        <ele>478.39</ele>
        <time>2015-06-28T09:23:11Z</time>
      </trkpt>
      <trkpt lat="45.77332" lon="3.05434">
        <ele>479.84</ele>
        <time>2015-06-28T09:23:23Z</time>
      </trkpt>
      <trkpt lat="45.7733" lon="3.05438">
        <ele>479.84</ele>
        <time>2015-06-28T09:23:24Z</time>
      </trkpt>
      <trkpt lat="45.77323" lon="3.05457">
        <ele>479.84</ele>
        <time>2015-06-28T09:23:28Z</time>
      </trkpt>
      <trkpt lat="45.77292" lon="3.05543">
        <ele>480.32</ele>
        <time>2015-06-28T09:23:46Z</time>
      </trkpt>
      <trkpt lat="45.77278" lon="3.05586">
        <ele>480.32</ele>
        <time>2015-06-28T09:23:59Z</time>
      </trkpt>
      <trkpt lat="45.77278" lon="3.05597">
        <ele>479.84</ele>
        <time>2015-06-28T09:24:09Z</time>
      </trkpt>
      <trkpt lat="45.77274" lon="3.05591">
        <ele>479.84</ele>
        <time>2015-06-28T09:24:36Z</time>
      </trkpt>
      <trkpt lat="45.77269" lon="3.05602">
        <ele>479.35</ele>
        <time>2015-06-28T09:24:50Z</time>
      </trkpt>
      <trkpt lat="45.77266" lon="3.05602">
        <ele>478.87</ele>
        <time>2015-06-28T09:25:05Z</time>
      </trkpt>
      <trkpt lat="45.77255" lon="3.05609">
        <ele>477.43</ele>
        <time>2015-06-28T09:25:23Z</time>
      </trkpt>
      <trkpt lat="45.77243" lon="3.05596">
        <ele>477.91</ele>
        <time>2015-06-28T09:25:46Z</time>
      </trkpt>
      <trkpt lat="45.77243" lon="3.05593">
        <ele>477.91</ele>
        <time>2015-06-28T09:26:19Z</time>
      </trkpt>
      <trkpt lat="45.77241" lon="3.05607">
        <ele>477.91</ele>
        <time>2015-06-28T09:26:38Z</time>
      </trkpt>
      <trkpt lat="45.77233" lon="3.05615">
        <ele>476.47</ele>
        <time>2015-06-28T09:26:52Z</time>
      </trkpt>
      <trkpt lat="45.77229" lon="3.05616">
        <ele>473.11</ele>
        <time>2015-06-28T09:27:12Z</time>
      </trkpt>
      <trkpt lat="45.77229" lon="3.05616">
        <ele>478.87</ele>
        <time>2015-06-28T09:27:13Z</time>
      </trkpt>
      <trkpt lat="45.7723" lon="3.05618">
        <ele>477.43</ele>
        <time>2015-06-28T09:27:16Z</time>
      </trkpt>
      <trkpt lat="45.77228" lon="3.0562">
        <ele>477.43</ele>
        <time>2015-06-28T09:27:34Z</time>
      </trkpt>
    </trkseg>
  </trk>
</gpx>